<?xml version="1.0" encoding="UTF-8" standalone="no" ?>
<gpx xmlns="http://www.topografix.com/GPX/1/1" xmlns:xsi="http://www.w3.org/2001/XMLSchema-instance" xsi:schemaLocation="http://www.topografix.com/GPX/1/1 http://www.topografix.com/GPX/1/1/gpx.xsd" version="1.1" creator="VisuGPX - https://www.visugpx.com">
  <metadata>
    <name>64 - RAQUETTES - Lescun du pont de Lamareich à la cabane Pedain et retour</name>
    <desc><![CDATA[Superbe journée, soleil et neige]]></desc>
  </metadata>
  <wpt lat="42.89751" lon="-0.71735">
    <ele>1590.2</ele>
    <name><![CDATA[Cabane d'Ansabère]]></name>
  </wpt>
  <wpt lat="42.90805" lon="-0.71926">
    <ele>1594.3</ele>
    <name><![CDATA[Cabane de pedain]]></name>
  </wpt>
  <wpt lat="42.91206" lon="-0.67186">
    <ele>959.994873</ele>
    <name><![CDATA[Depart Randonn]]></name>
    <desc><![CDATA[Depart Randonnee 960m]]></desc>
    <cmt><![CDATA[Depart Randonnee 960m]]></cmt>
  </wpt>
  <wpt lat="42.91234" lon="-0.67199">
    <ele>957.111084</ele>
    <name><![CDATA[Parking Masous]]></name>
    <desc><![CDATA[Parking Masousa]]></desc>
    <cmt><![CDATA[Parking Masousa]]></cmt>
  </wpt>
  <wpt lat="42.90563" lon="-0.69119">
    <ele>1176.1</ele>
    <name><![CDATA[pont Lamary 11]]></name>
    <desc><![CDATA[ pont Lamary 1171m]]></desc>
    <cmt><![CDATA[ pont Lamary 1171m]]></cmt>
  </wpt>
  <trk>
    <name><![CDATA[ACTIVE LOG]]></name>
    <trkseg>
      <trkpt lat="42.91217" lon="-0.67178">
        <ele>961.936523</ele>
        <time>2013-12-12T09:13:08Z</time>
      </trkpt>
      <trkpt lat="42.91217" lon="-0.67178">
        <ele>961.936523</ele>
        <time>2013-12-12T09:13:09Z</time>
      </trkpt>
      <trkpt lat="42.91217" lon="-0.67177">
        <ele>962.416992</ele>
        <time>2013-12-12T09:13:11Z</time>
      </trkpt>
      <trkpt lat="42.91217" lon="-0.6718">
        <ele>964.820313</ele>
        <time>2013-12-12T09:13:36Z</time>
      </trkpt>
      <trkpt lat="42.91217" lon="-0.67181">
        <ele>962.416992</ele>
        <time>2013-12-12T09:13:43Z</time>
      </trkpt>
      <trkpt lat="42.91216" lon="-0.67181">
        <ele>961.936523</ele>
        <time>2013-12-12T09:14:05Z</time>
      </trkpt>
      <trkpt lat="42.91217" lon="-0.67184">
        <ele>961.936523</ele>
        <time>2013-12-12T09:14:38Z</time>
      </trkpt>
      <trkpt lat="42.91217" lon="-0.67184">
        <ele>961.936523</ele>
        <time>2013-12-12T09:14:39Z</time>
      </trkpt>
      <trkpt lat="42.91217" lon="-0.67179">
        <ele>962.416992</ele>
        <time>2013-12-12T09:15:07Z</time>
      </trkpt>
      <trkpt lat="42.91217" lon="-0.67179">
        <ele>962.416992</ele>
        <time>2013-12-12T09:15:08Z</time>
      </trkpt>
      <trkpt lat="42.91219" lon="-0.6718">
        <ele>962.897705</ele>
        <time>2013-12-12T09:15:25Z</time>
      </trkpt>
      <trkpt lat="42.91218" lon="-0.67183">
        <ele>963.858887</ele>
        <time>2013-12-12T09:15:39Z</time>
      </trkpt>
      <trkpt lat="42.91218" lon="-0.6719">
        <ele>962.897705</ele>
        <time>2013-12-12T09:15:56Z</time>
      </trkpt>
      <trkpt lat="42.91212" lon="-0.67194">
        <ele>963.858887</ele>
        <time>2013-12-12T09:16:04Z</time>
      </trkpt>
      <trkpt lat="42.9119" lon="-0.67192">
        <ele>964.820313</ele>
        <time>2013-12-12T09:16:26Z</time>
      </trkpt>
      <trkpt lat="42.9118" lon="-0.67202">
        <ele>966.74292</ele>
        <time>2013-12-12T09:16:43Z</time>
      </trkpt>
      <trkpt lat="42.91173" lon="-0.67209">
        <ele>967.223633</ele>
        <time>2013-12-12T09:16:57Z</time>
      </trkpt>
      <trkpt lat="42.91167" lon="-0.67215">
        <ele>969.14624</ele>
        <time>2013-12-12T09:17:11Z</time>
      </trkpt>
      <trkpt lat="42.91154" lon="-0.67223">
        <ele>971.068848</ele>
        <time>2013-12-12T09:17:29Z</time>
      </trkpt>
      <trkpt lat="42.91154" lon="-0.67223">
        <ele>972.030273</ele>
        <time>2013-12-12T09:17:42Z</time>
      </trkpt>
      <trkpt lat="42.91151" lon="-0.67227">
        <ele>972.991699</ele>
        <time>2013-12-12T09:18:05Z</time>
      </trkpt>
      <trkpt lat="42.91147" lon="-0.67231">
        <ele>972.991699</ele>
        <time>2013-12-12T09:18:09Z</time>
      </trkpt>
      <trkpt lat="42.91143" lon="-0.67232">
        <ele>973.952881</ele>
        <time>2013-12-12T09:18:13Z</time>
      </trkpt>
      <trkpt lat="42.91126" lon="-0.67236">
        <ele>976.836914</ele>
        <time>2013-12-12T09:18:29Z</time>
      </trkpt>
      <trkpt lat="42.91113" lon="-0.67236">
        <ele>980.201416</ele>
        <time>2013-12-12T09:18:43Z</time>
      </trkpt>
      <trkpt lat="42.91104" lon="-0.67241">
        <ele>982.124023</ele>
        <time>2013-12-12T09:18:59Z</time>
      </trkpt>
      <trkpt lat="42.91096" lon="-0.67244">
        <ele>984.046631</ele>
        <time>2013-12-12T09:19:14Z</time>
      </trkpt>
      <trkpt lat="42.91086" lon="-0.6725">
        <ele>986.449951</ele>
        <time>2013-12-12T09:19:29Z</time>
      </trkpt>
      <trkpt lat="42.91085" lon="-0.6725">
        <ele>986.449951</ele>
        <time>2013-12-12T09:19:30Z</time>
      </trkpt>
      <trkpt lat="42.91076" lon="-0.67258">
        <ele>988.372803</ele>
        <time>2013-12-12T09:19:43Z</time>
      </trkpt>
      <trkpt lat="42.91071" lon="-0.67266">
        <ele>988.853516</ele>
        <time>2013-12-12T09:19:52Z</time>
      </trkpt>
      <trkpt lat="42.9107" lon="-0.67282">
        <ele>991.256592</ele>
        <time>2013-12-12T09:20:04Z</time>
      </trkpt>
      <trkpt lat="42.91071" lon="-0.67295">
        <ele>993.659912</ele>
        <time>2013-12-12T09:20:16Z</time>
      </trkpt>
      <trkpt lat="42.91077" lon="-0.67313">
        <ele>995.58252</ele>
        <time>2013-12-12T09:20:31Z</time>
      </trkpt>
      <trkpt lat="42.91081" lon="-0.67323">
        <ele>996.063232</ele>
        <time>2013-12-12T09:20:46Z</time>
      </trkpt>
      <trkpt lat="42.91085" lon="-0.67344">
        <ele>998.466309</ele>
        <time>2013-12-12T09:21:03Z</time>
      </trkpt>
      <trkpt lat="42.91085" lon="-0.67359">
        <ele>1000.38916</ele>
        <time>2013-12-12T09:21:15Z</time>
      </trkpt>
      <trkpt lat="42.91082" lon="-0.67379">
        <ele>1002.792236</ele>
        <time>2013-12-12T09:21:31Z</time>
      </trkpt>
      <trkpt lat="42.91082" lon="-0.67381">
        <ele>1003.272949</ele>
        <time>2013-12-12T09:21:32Z</time>
      </trkpt>
      <trkpt lat="42.91081" lon="-0.674">
        <ele>1004.715088</ele>
        <time>2013-12-12T09:21:46Z</time>
      </trkpt>
      <trkpt lat="42.91079" lon="-0.67423">
        <ele>1006.156982</ele>
        <time>2013-12-12T09:22:04Z</time>
      </trkpt>
      <trkpt lat="42.91061" lon="-0.6744">
        <ele>1008.079834</ele>
        <time>2013-12-12T09:22:24Z</time>
      </trkpt>
      <trkpt lat="42.91048" lon="-0.67441">
        <ele>1008.560303</ele>
        <time>2013-12-12T09:22:38Z</time>
      </trkpt>
      <trkpt lat="42.91029" lon="-0.67425">
        <ele>1009.521729</ele>
        <time>2013-12-12T09:22:58Z</time>
      </trkpt>
      <trkpt lat="42.91018" lon="-0.67401">
        <ele>1010.963623</ele>
        <time>2013-12-12T09:23:18Z</time>
      </trkpt>
      <trkpt lat="42.9101" lon="-0.6738">
        <ele>1012.88623</ele>
        <time>2013-12-12T09:23:35Z</time>
      </trkpt>
      <trkpt lat="42.91003" lon="-0.67352">
        <ele>1013.847412</ele>
        <time>2013-12-12T09:23:55Z</time>
      </trkpt>
      <trkpt lat="42.90999" lon="-0.67343">
        <ele>1013.847412</ele>
        <time>2013-12-12T09:24:03Z</time>
      </trkpt>
      <trkpt lat="42.9099" lon="-0.6734">
        <ele>1014.808838</ele>
        <time>2013-12-12T09:24:15Z</time>
      </trkpt>
      <trkpt lat="42.90983" lon="-0.67353">
        <ele>1016.731445</ele>
        <time>2013-12-12T09:24:30Z</time>
      </trkpt>
      <trkpt lat="42.90981" lon="-0.67355">
        <ele>1016.731445</ele>
        <time>2013-12-12T09:24:33Z</time>
      </trkpt>
      <trkpt lat="42.90969" lon="-0.67375">
        <ele>1019.134766</ele>
        <time>2013-12-12T09:24:50Z</time>
      </trkpt>
      <trkpt lat="42.90967" lon="-0.67391">
        <ele>1020.576904</ele>
        <time>2013-12-12T09:25:05Z</time>
      </trkpt>
      <trkpt lat="42.90968" lon="-0.67398">
        <ele>1022.018799</ele>
        <time>2013-12-12T09:25:09Z</time>
      </trkpt>
      <trkpt lat="42.90953" lon="-0.67421">
        <ele>1022.499512</ele>
        <time>2013-12-12T09:25:27Z</time>
      </trkpt>
      <trkpt lat="42.90942" lon="-0.67438">
        <ele>1023.941406</ele>
        <time>2013-12-12T09:25:44Z</time>
      </trkpt>
      <trkpt lat="42.9093" lon="-0.67459">
        <ele>1025.383301</ele>
        <time>2013-12-12T09:26:01Z</time>
      </trkpt>
      <trkpt lat="42.90929" lon="-0.67464">
        <ele>1025.383301</ele>
        <time>2013-12-12T09:26:04Z</time>
      </trkpt>
      <trkpt lat="42.90929" lon="-0.67478">
        <ele>1025.383301</ele>
        <time>2013-12-12T09:26:14Z</time>
      </trkpt>
      <trkpt lat="42.90927" lon="-0.67496">
        <ele>1027.306152</ele>
        <time>2013-12-12T09:26:28Z</time>
      </trkpt>
      <trkpt lat="42.90924" lon="-0.67511">
        <ele>1030.670654</ele>
        <time>2013-12-12T09:26:39Z</time>
      </trkpt>
      <trkpt lat="42.90919" lon="-0.67531">
        <ele>1034.035156</ele>
        <time>2013-12-12T09:26:54Z</time>
      </trkpt>
      <trkpt lat="42.90914" lon="-0.67553">
        <ele>1034.996582</ele>
        <time>2013-12-12T09:27:09Z</time>
      </trkpt>
      <trkpt lat="42.90909" lon="-0.67575">
        <ele>1035.957764</ele>
        <time>2013-12-12T09:27:24Z</time>
      </trkpt>
      <trkpt lat="42.90904" lon="-0.67598">
        <ele>1037.880615</ele>
        <time>2013-12-12T09:27:41Z</time>
      </trkpt>
      <trkpt lat="42.90899" lon="-0.67621">
        <ele>1038.361328</ele>
        <time>2013-12-12T09:27:57Z</time>
      </trkpt>
      <trkpt lat="42.90899" lon="-0.67627">
        <ele>1038.842041</ele>
        <time>2013-12-12T09:28:01Z</time>
      </trkpt>
      <trkpt lat="42.90901" lon="-0.6764">
        <ele>1039.803223</ele>
        <time>2013-12-12T09:28:11Z</time>
      </trkpt>
      <trkpt lat="42.90906" lon="-0.67663">
        <ele>1042.206543</ele>
        <time>2013-12-12T09:28:29Z</time>
      </trkpt>
      <trkpt lat="42.90907" lon="-0.67669">
        <ele>1042.206543</ele>
        <time>2013-12-12T09:28:33Z</time>
      </trkpt>
      <trkpt lat="42.90908" lon="-0.67672">
        <ele>1043.167725</ele>
        <time>2013-12-12T09:28:36Z</time>
      </trkpt>
      <trkpt lat="42.90916" lon="-0.67694">
        <ele>1045.090332</ele>
        <time>2013-12-12T09:28:53Z</time>
      </trkpt>
      <trkpt lat="42.90921" lon="-0.67713">
        <ele>1046.051758</ele>
        <time>2013-12-12T09:29:08Z</time>
      </trkpt>
      <trkpt lat="42.90924" lon="-0.67734">
        <ele>1047.012939</ele>
        <time>2013-12-12T09:29:23Z</time>
      </trkpt>
      <trkpt lat="42.90921" lon="-0.67753">
        <ele>1047.974365</ele>
        <time>2013-12-12T09:29:36Z</time>
      </trkpt>
      <trkpt lat="42.90919" lon="-0.67771">
        <ele>1049.41626</ele>
        <time>2013-12-12T09:29:49Z</time>
      </trkpt>
      <trkpt lat="42.9092" lon="-0.67787">
        <ele>1050.858154</ele>
        <time>2013-12-12T09:30:00Z</time>
      </trkpt>
      <trkpt lat="42.90923" lon="-0.67808">
        <ele>1052.781006</ele>
        <time>2013-12-12T09:30:17Z</time>
      </trkpt>
      <trkpt lat="42.90923" lon="-0.67822">
        <ele>1053.742432</ele>
        <time>2013-12-12T09:30:27Z</time>
      </trkpt>
      <trkpt lat="42.90928" lon="-0.67842">
        <ele>1055.665039</ele>
        <time>2013-12-12T09:30:42Z</time>
      </trkpt>
      <trkpt lat="42.9093" lon="-0.67846">
        <ele>1056.626221</ele>
        <time>2013-12-12T09:30:46Z</time>
      </trkpt>
      <trkpt lat="42.90937" lon="-0.67868">
        <ele>1057.587646</ele>
        <time>2013-12-12T09:31:03Z</time>
      </trkpt>
      <trkpt lat="42.90946" lon="-0.6789">
        <ele>1059.510254</ele>
        <time>2013-12-12T09:31:20Z</time>
      </trkpt>
      <trkpt lat="42.90951" lon="-0.67907">
        <ele>1060.952148</ele>
        <time>2013-12-12T09:31:33Z</time>
      </trkpt>
      <trkpt lat="42.90953" lon="-0.67928">
        <ele>1062.874756</ele>
        <time>2013-12-12T09:31:50Z</time>
      </trkpt>
      <trkpt lat="42.90953" lon="-0.67936">
        <ele>1063.835938</ele>
        <time>2013-12-12T09:31:57Z</time>
      </trkpt>
      <trkpt lat="42.90948" lon="-0.67958">
        <ele>1064.797363</ele>
        <time>2013-12-12T09:32:13Z</time>
      </trkpt>
      <trkpt lat="42.90946" lon="-0.67976">
        <ele>1067.200684</ele>
        <time>2013-12-12T09:32:28Z</time>
      </trkpt>
      <trkpt lat="42.90944" lon="-0.67995">
        <ele>1068.162109</ele>
        <time>2013-12-12T09:32:43Z</time>
      </trkpt>
      <trkpt lat="42.90938" lon="-0.68014">
        <ele>1069.604248</ele>
        <time>2013-12-12T09:33:02Z</time>
      </trkpt>
      <trkpt lat="42.90931" lon="-0.68033">
        <ele>1071.526611</ele>
        <time>2013-12-12T09:33:16Z</time>
      </trkpt>
      <trkpt lat="42.90928" lon="-0.68046">
        <ele>1072.96875</ele>
        <time>2013-12-12T09:33:25Z</time>
      </trkpt>
      <trkpt lat="42.90927" lon="-0.68055">
        <ele>1073.449463</ele>
        <time>2013-12-12T09:33:32Z</time>
      </trkpt>
      <trkpt lat="42.90927" lon="-0.6806">
        <ele>1073.929932</ele>
        <time>2013-12-12T09:33:35Z</time>
      </trkpt>
      <trkpt lat="42.90926" lon="-0.68076">
        <ele>1076.813965</ele>
        <time>2013-12-12T09:33:49Z</time>
      </trkpt>
      <trkpt lat="42.90913" lon="-0.68093">
        <ele>1078.736572</ele>
        <time>2013-12-12T09:34:06Z</time>
      </trkpt>
      <trkpt lat="42.90903" lon="-0.68098">
        <ele>1079.697754</ele>
        <time>2013-12-12T09:34:17Z</time>
      </trkpt>
      <trkpt lat="42.90892" lon="-0.68105">
        <ele>1080.65918</ele>
        <time>2013-12-12T09:34:30Z</time>
      </trkpt>
      <trkpt lat="42.90883" lon="-0.68113">
        <ele>1081.620361</ele>
        <time>2013-12-12T09:34:42Z</time>
      </trkpt>
      <trkpt lat="42.90869" lon="-0.68127">
        <ele>1081.620361</ele>
        <time>2013-12-12T09:34:59Z</time>
      </trkpt>
      <trkpt lat="42.90858" lon="-0.68138">
        <ele>1082.581787</ele>
        <time>2013-12-12T09:35:10Z</time>
      </trkpt>
      <trkpt lat="42.90848" lon="-0.68149">
        <ele>1084.504639</ele>
        <time>2013-12-12T09:35:24Z</time>
      </trkpt>
      <trkpt lat="42.90841" lon="-0.68172">
        <ele>1087.869141</ele>
        <time>2013-12-12T09:35:40Z</time>
      </trkpt>
      <trkpt lat="42.9084" lon="-0.68178">
        <ele>1088.830566</ele>
        <time>2013-12-12T09:35:45Z</time>
      </trkpt>
      <trkpt lat="42.90836" lon="-0.68198">
        <ele>1091.233643</ele>
        <time>2013-12-12T09:35:59Z</time>
      </trkpt>
      <trkpt lat="42.90836" lon="-0.6821">
        <ele>1092.675781</ele>
        <time>2013-12-12T09:36:08Z</time>
      </trkpt>
      <trkpt lat="42.90833" lon="-0.68229">
        <ele>1095.078857</ele>
        <time>2013-12-12T09:36:22Z</time>
      </trkpt>
      <trkpt lat="42.90831" lon="-0.68241">
        <ele>1096.040283</ele>
        <time>2013-12-12T09:36:38Z</time>
      </trkpt>
      <trkpt lat="42.9083" lon="-0.68255">
        <ele>1097.482178</ele>
        <time>2013-12-12T09:36:52Z</time>
      </trkpt>
      <trkpt lat="42.90828" lon="-0.68268">
        <ele>1098.924072</ele>
        <time>2013-12-12T09:37:03Z</time>
      </trkpt>
      <trkpt lat="42.90826" lon="-0.68283">
        <ele>1099.404785</ele>
        <time>2013-12-12T09:37:14Z</time>
      </trkpt>
      <trkpt lat="42.90824" lon="-0.68288">
        <ele>1100.366455</ele>
        <time>2013-12-12T09:37:18Z</time>
      </trkpt>
      <trkpt lat="42.90814" lon="-0.68304">
        <ele>1101.80835</ele>
        <time>2013-12-12T09:37:33Z</time>
      </trkpt>
      <trkpt lat="42.9081" lon="-0.68315">
        <ele>1104.21167</ele>
        <time>2013-12-12T09:37:45Z</time>
      </trkpt>
      <trkpt lat="42.90803" lon="-0.68331">
        <ele>1106.614746</ele>
        <time>2013-12-12T09:37:59Z</time>
      </trkpt>
      <trkpt lat="42.90799" lon="-0.68341">
        <ele>1108.056885</ele>
        <time>2013-12-12T09:38:08Z</time>
      </trkpt>
      <trkpt lat="42.9079" lon="-0.68357">
        <ele>1109.979248</ele>
        <time>2013-12-12T09:38:24Z</time>
      </trkpt>
      <trkpt lat="42.90784" lon="-0.68377">
        <ele>1110.940674</ele>
        <time>2013-12-12T09:38:39Z</time>
      </trkpt>
      <trkpt lat="42.90779" lon="-0.68391">
        <ele>1112.382568</ele>
        <time>2013-12-12T09:38:50Z</time>
      </trkpt>
      <trkpt lat="42.90777" lon="-0.68406">
        <ele>1113.343994</ele>
        <time>2013-12-12T09:39:01Z</time>
      </trkpt>
      <trkpt lat="42.90773" lon="-0.68422">
        <ele>1115.266602</ele>
        <time>2013-12-12T09:39:13Z</time>
      </trkpt>
      <trkpt lat="42.90771" lon="-0.68438">
        <ele>1116.70874</ele>
        <time>2013-12-12T09:39:24Z</time>
      </trkpt>
      <trkpt lat="42.90761" lon="-0.68462">
        <ele>1118.150635</ele>
        <time>2013-12-12T09:39:43Z</time>
      </trkpt>
      <trkpt lat="42.90756" lon="-0.68475">
        <ele>1119.112061</ele>
        <time>2013-12-12T09:39:54Z</time>
      </trkpt>
      <trkpt lat="42.90753" lon="-0.68488">
        <ele>1120.553955</ele>
        <time>2013-12-12T09:40:05Z</time>
      </trkpt>
      <trkpt lat="42.90748" lon="-0.685">
        <ele>1121.034668</ele>
        <time>2013-12-12T09:40:14Z</time>
      </trkpt>
      <trkpt lat="42.90739" lon="-0.68521">
        <ele>1122.476563</ele>
        <time>2013-12-12T09:40:32Z</time>
      </trkpt>
      <trkpt lat="42.90731" lon="-0.68535">
        <ele>1123.918457</ele>
        <time>2013-12-12T09:40:45Z</time>
      </trkpt>
      <trkpt lat="42.9072" lon="-0.68551">
        <ele>1126.80249</ele>
        <time>2013-12-12T09:41:01Z</time>
      </trkpt>
      <trkpt lat="42.90713" lon="-0.68565">
        <ele>1128.244385</ele>
        <time>2013-12-12T09:41:15Z</time>
      </trkpt>
      <trkpt lat="42.90703" lon="-0.68582">
        <ele>1131.128418</ele>
        <time>2013-12-12T09:41:31Z</time>
      </trkpt>
      <trkpt lat="42.90695" lon="-0.68598">
        <ele>1132.570557</ele>
        <time>2013-12-12T09:41:47Z</time>
      </trkpt>
      <trkpt lat="42.90692" lon="-0.68602">
        <ele>1134.012451</ele>
        <time>2013-12-12T09:41:52Z</time>
      </trkpt>
      <trkpt lat="42.90677" lon="-0.68621">
        <ele>1136.89624</ele>
        <time>2013-12-12T09:42:11Z</time>
      </trkpt>
      <trkpt lat="42.90675" lon="-0.6863">
        <ele>1136.415771</ele>
        <time>2013-12-12T09:42:17Z</time>
      </trkpt>
      <trkpt lat="42.90675" lon="-0.68653">
        <ele>1137.857666</ele>
        <time>2013-12-12T09:42:35Z</time>
      </trkpt>
      <trkpt lat="42.90675" lon="-0.68663">
        <ele>1139.299561</ele>
        <time>2013-12-12T09:42:42Z</time>
      </trkpt>
      <trkpt lat="42.90676" lon="-0.68666">
        <ele>1138.819092</ele>
        <time>2013-12-12T09:42:45Z</time>
      </trkpt>
      <trkpt lat="42.90683" lon="-0.6869">
        <ele>1140.260986</ele>
        <time>2013-12-12T09:43:03Z</time>
      </trkpt>
      <trkpt lat="42.90684" lon="-0.68703">
        <ele>1141.222168</ele>
        <time>2013-12-12T09:43:12Z</time>
      </trkpt>
      <trkpt lat="42.90681" lon="-0.68717">
        <ele>1142.664307</ele>
        <time>2013-12-12T09:43:26Z</time>
      </trkpt>
      <trkpt lat="42.90671" lon="-0.68725">
        <ele>1144.58667</ele>
        <time>2013-12-12T09:43:45Z</time>
      </trkpt>
      <trkpt lat="42.90659" lon="-0.68721">
        <ele>1147.470703</ele>
        <time>2013-12-12T09:44:00Z</time>
      </trkpt>
      <trkpt lat="42.90647" lon="-0.68713">
        <ele>1150.35498</ele>
        <time>2013-12-12T09:44:21Z</time>
      </trkpt>
      <trkpt lat="42.90634" lon="-0.68714">
        <ele>1153.719482</ele>
        <time>2013-12-12T09:44:38Z</time>
      </trkpt>
      <trkpt lat="42.90623" lon="-0.6873">
        <ele>1153.719482</ele>
        <time>2013-12-12T09:44:57Z</time>
      </trkpt>
      <trkpt lat="42.90622" lon="-0.68753">
        <ele>1155.161377</ele>
        <time>2013-12-12T09:45:14Z</time>
      </trkpt>
      <trkpt lat="42.9062" lon="-0.68778">
        <ele>1156.122559</ele>
        <time>2013-12-12T09:45:31Z</time>
      </trkpt>
      <trkpt lat="42.90622" lon="-0.6879">
        <ele>1157.564697</ele>
        <time>2013-12-12T09:45:41Z</time>
      </trkpt>
      <trkpt lat="42.90629" lon="-0.6881">
        <ele>1159.487305</ele>
        <time>2013-12-12T09:45:58Z</time>
      </trkpt>
      <trkpt lat="42.90638" lon="-0.68824">
        <ele>1160.929199</ele>
        <time>2013-12-12T09:46:11Z</time>
      </trkpt>
      <trkpt lat="42.90655" lon="-0.68837">
        <ele>1162.371094</ele>
        <time>2013-12-12T09:46:28Z</time>
      </trkpt>
      <trkpt lat="42.90661" lon="-0.68842">
        <ele>1164.293945</ele>
        <time>2013-12-12T09:46:34Z</time>
      </trkpt>
      <trkpt lat="42.90669" lon="-0.68865">
        <ele>1166.216553</ele>
        <time>2013-12-12T09:46:52Z</time>
      </trkpt>
      <trkpt lat="42.90669" lon="-0.68882">
        <ele>1167.177979</ele>
        <time>2013-12-12T09:47:11Z</time>
      </trkpt>
      <trkpt lat="42.90669" lon="-0.6889">
        <ele>1167.658447</ele>
        <time>2013-12-12T09:47:23Z</time>
      </trkpt>
      <trkpt lat="42.90669" lon="-0.68917">
        <ele>1171.023193</ele>
        <time>2013-12-12T09:47:42Z</time>
      </trkpt>
      <trkpt lat="42.90651" lon="-0.68939">
        <ele>1172.465088</ele>
        <time>2013-12-12T09:48:01Z</time>
      </trkpt>
      <trkpt lat="42.90637" lon="-0.68952">
        <ele>1172.945801</ele>
        <time>2013-12-12T09:48:18Z</time>
      </trkpt>
      <trkpt lat="42.90619" lon="-0.6897">
        <ele>1171.984375</ele>
        <time>2013-12-12T09:48:38Z</time>
      </trkpt>
      <trkpt lat="42.90603" lon="-0.6899">
        <ele>1171.984375</ele>
        <time>2013-12-12T09:48:57Z</time>
      </trkpt>
      <trkpt lat="42.90596" lon="-0.69004">
        <ele>1175.348877</ele>
        <time>2013-12-12T09:49:10Z</time>
      </trkpt>
      <trkpt lat="42.90589" lon="-0.69028">
        <ele>1178.23291</ele>
        <time>2013-12-12T09:49:29Z</time>
      </trkpt>
      <trkpt lat="42.90576" lon="-0.69055">
        <ele>1179.194092</ele>
        <time>2013-12-12T09:49:51Z</time>
      </trkpt>
      <trkpt lat="42.90567" lon="-0.69076">
        <ele>1178.23291</ele>
        <time>2013-12-12T09:50:08Z</time>
      </trkpt>
      <trkpt lat="42.90562" lon="-0.69099">
        <ele>1177.752197</ele>
        <time>2013-12-12T09:50:25Z</time>
      </trkpt>
      <trkpt lat="42.90562" lon="-0.69101">
        <ele>1176.310303</ele>
        <time>2013-12-12T09:50:27Z</time>
      </trkpt>
      <trkpt lat="42.9056" lon="-0.69123">
        <ele>1176.310303</ele>
        <time>2013-12-12T09:50:45Z</time>
      </trkpt>
      <trkpt lat="42.90555" lon="-0.69128">
        <ele>1177.752197</ele>
        <time>2013-12-12T09:51:08Z</time>
      </trkpt>
      <trkpt lat="42.90548" lon="-0.69134">
        <ele>1178.23291</ele>
        <time>2013-12-12T09:51:26Z</time>
      </trkpt>
      <trkpt lat="42.90545" lon="-0.69136">
        <ele>1179.194092</ele>
        <time>2013-12-12T09:51:41Z</time>
      </trkpt>
      <trkpt lat="42.90544" lon="-0.69137">
        <ele>1179.194092</ele>
        <time>2013-12-12T09:51:42Z</time>
      </trkpt>
      <trkpt lat="42.90533" lon="-0.69158">
        <ele>1180.636475</ele>
        <time>2013-12-12T09:52:01Z</time>
      </trkpt>
      <trkpt lat="42.90528" lon="-0.6917">
        <ele>1183.039551</ele>
        <time>2013-12-12T09:52:12Z</time>
      </trkpt>
      <trkpt lat="42.90526" lon="-0.69175">
        <ele>1183.039551</ele>
        <time>2013-12-12T09:52:16Z</time>
      </trkpt>
      <trkpt lat="42.90515" lon="-0.69196">
        <ele>1185.442871</ele>
        <time>2013-12-12T09:52:33Z</time>
      </trkpt>
      <trkpt lat="42.90508" lon="-0.69219">
        <ele>1187.365479</ele>
        <time>2013-12-12T09:52:49Z</time>
      </trkpt>
      <trkpt lat="42.90498" lon="-0.69235">
        <ele>1190.249512</ele>
        <time>2013-12-12T09:53:07Z</time>
      </trkpt>
      <trkpt lat="42.90487" lon="-0.69253">
        <ele>1193.133301</ele>
        <time>2013-12-12T09:53:27Z</time>
      </trkpt>
      <trkpt lat="42.90477" lon="-0.69271">
        <ele>1194.094727</ele>
        <time>2013-12-12T09:53:44Z</time>
      </trkpt>
      <trkpt lat="42.90467" lon="-0.69284">
        <ele>1195.536621</ele>
        <time>2013-12-12T09:54:00Z</time>
      </trkpt>
      <trkpt lat="42.90459" lon="-0.69303">
        <ele>1197.940186</ele>
        <time>2013-12-12T09:54:17Z</time>
      </trkpt>
      <trkpt lat="42.90454" lon="-0.6932">
        <ele>1200.343506</ele>
        <time>2013-12-12T09:54:32Z</time>
      </trkpt>
      <trkpt lat="42.90449" lon="-0.69341">
        <ele>1202.746582</ele>
        <time>2013-12-12T09:54:51Z</time>
      </trkpt>
      <trkpt lat="42.90441" lon="-0.69357">
        <ele>1206.111084</ele>
        <time>2013-12-12T09:55:07Z</time>
      </trkpt>
      <trkpt lat="42.90435" lon="-0.69368">
        <ele>1207.553223</ele>
        <time>2013-12-12T09:55:25Z</time>
      </trkpt>
      <trkpt lat="42.90428" lon="-0.69378">
        <ele>1209.956299</ele>
        <time>2013-12-12T09:55:47Z</time>
      </trkpt>
      <trkpt lat="42.90416" lon="-0.69404">
        <ele>1211.87915</ele>
        <time>2013-12-12T09:56:08Z</time>
      </trkpt>
      <trkpt lat="42.90414" lon="-0.69414">
        <ele>1211.87915</ele>
        <time>2013-12-12T09:56:25Z</time>
      </trkpt>
      <trkpt lat="42.90419" lon="-0.69434">
        <ele>1214.763184</ele>
        <time>2013-12-12T09:56:45Z</time>
      </trkpt>
      <trkpt lat="42.90422" lon="-0.69447">
        <ele>1218.127686</ele>
        <time>2013-12-12T09:56:57Z</time>
      </trkpt>
      <trkpt lat="42.90422" lon="-0.69448">
        <ele>1218.608398</ele>
        <time>2013-12-12T09:56:58Z</time>
      </trkpt>
      <trkpt lat="42.90424" lon="-0.69463">
        <ele>1220.531006</ele>
        <time>2013-12-12T09:57:12Z</time>
      </trkpt>
      <trkpt lat="42.90423" lon="-0.69483">
        <ele>1223.415039</ele>
        <time>2013-12-12T09:57:31Z</time>
      </trkpt>
      <trkpt lat="42.90412" lon="-0.69507">
        <ele>1224.856934</ele>
        <time>2013-12-12T09:57:50Z</time>
      </trkpt>
      <trkpt lat="42.90415" lon="-0.6953">
        <ele>1226.779541</ele>
        <time>2013-12-12T09:58:10Z</time>
      </trkpt>
      <trkpt lat="42.9042" lon="-0.69548">
        <ele>1228.702393</ele>
        <time>2013-12-12T09:58:29Z</time>
      </trkpt>
      <trkpt lat="42.90421" lon="-0.69563">
        <ele>1232.547607</ele>
        <time>2013-12-12T09:58:42Z</time>
      </trkpt>
      <trkpt lat="42.90421" lon="-0.69564">
        <ele>1232.547607</ele>
        <time>2013-12-12T09:58:43Z</time>
      </trkpt>
      <trkpt lat="42.90417" lon="-0.69585">
        <ele>1233.989502</ele>
        <time>2013-12-12T09:59:00Z</time>
      </trkpt>
      <trkpt lat="42.90419" lon="-0.69595">
        <ele>1235.912109</ele>
        <time>2013-12-12T09:59:09Z</time>
      </trkpt>
      <trkpt lat="42.90421" lon="-0.69616">
        <ele>1238.31543</ele>
        <time>2013-12-12T09:59:27Z</time>
      </trkpt>
      <trkpt lat="42.90422" lon="-0.69631">
        <ele>1241.679932</ele>
        <time>2013-12-12T09:59:42Z</time>
      </trkpt>
      <trkpt lat="42.90417" lon="-0.69636">
        <ele>1240.718506</ele>
        <time>2013-12-12T10:00:11Z</time>
      </trkpt>
      <trkpt lat="42.90418" lon="-0.69638">
        <ele>1242.160645</ele>
        <time>2013-12-12T10:00:35Z</time>
      </trkpt>
      <trkpt lat="42.9042" lon="-0.69653">
        <ele>1244.083496</ele>
        <time>2013-12-12T10:00:52Z</time>
      </trkpt>
      <trkpt lat="42.90426" lon="-0.69671">
        <ele>1247.447998</ele>
        <time>2013-12-12T10:01:12Z</time>
      </trkpt>
      <trkpt lat="42.90429" lon="-0.69692">
        <ele>1248.889893</ele>
        <time>2013-12-12T10:01:31Z</time>
      </trkpt>
      <trkpt lat="42.90425" lon="-0.69712">
        <ele>1252.254395</ele>
        <time>2013-12-12T10:01:51Z</time>
      </trkpt>
      <trkpt lat="42.90422" lon="-0.69729">
        <ele>1255.138428</ele>
        <time>2013-12-12T10:02:08Z</time>
      </trkpt>
      <trkpt lat="42.90427" lon="-0.69747">
        <ele>1258.022461</ele>
        <time>2013-12-12T10:02:27Z</time>
      </trkpt>
      <trkpt lat="42.90439" lon="-0.69763">
        <ele>1259.944824</ele>
        <time>2013-12-12T10:02:48Z</time>
      </trkpt>
      <trkpt lat="42.90446" lon="-0.69774">
        <ele>1263.309814</ele>
        <time>2013-12-12T10:03:02Z</time>
      </trkpt>
      <trkpt lat="42.90458" lon="-0.69788">
        <ele>1264.751709</ele>
        <time>2013-12-12T10:03:22Z</time>
      </trkpt>
      <trkpt lat="42.90466" lon="-0.69802">
        <ele>1268.116211</ele>
        <time>2013-12-12T10:03:39Z</time>
      </trkpt>
      <trkpt lat="42.9047" lon="-0.69813">
        <ele>1271.000244</ele>
        <time>2013-12-12T10:03:54Z</time>
      </trkpt>
      <trkpt lat="42.90468" lon="-0.69827">
        <ele>1273.403564</ele>
        <time>2013-12-12T10:04:17Z</time>
      </trkpt>
      <trkpt lat="42.90463" lon="-0.69842">
        <ele>1276.768311</ele>
        <time>2013-12-12T10:04:34Z</time>
      </trkpt>
      <trkpt lat="42.90463" lon="-0.69843">
        <ele>1275.806641</ele>
        <time>2013-12-12T10:04:55Z</time>
      </trkpt>
      <trkpt lat="42.90465" lon="-0.6985">
        <ele>1276.287598</ele>
        <time>2013-12-12T10:05:21Z</time>
      </trkpt>
      <trkpt lat="42.9047" lon="-0.6986">
        <ele>1279.171387</ele>
        <time>2013-12-12T10:05:39Z</time>
      </trkpt>
      <trkpt lat="42.90475" lon="-0.69872">
        <ele>1282.05542</ele>
        <time>2013-12-12T10:06:00Z</time>
      </trkpt>
      <trkpt lat="42.90475" lon="-0.69873">
        <ele>1283.497314</ele>
        <time>2013-12-12T10:06:02Z</time>
      </trkpt>
      <trkpt lat="42.9048" lon="-0.69885">
        <ele>1286.861816</ele>
        <time>2013-12-12T10:06:20Z</time>
      </trkpt>
      <trkpt lat="42.90484" lon="-0.69899">
        <ele>1289.265137</ele>
        <time>2013-12-12T10:06:40Z</time>
      </trkpt>
      <trkpt lat="42.90483" lon="-0.69907">
        <ele>1292.149414</ele>
        <time>2013-12-12T10:06:51Z</time>
      </trkpt>
      <trkpt lat="42.90471" lon="-0.69924">
        <ele>1294.55249</ele>
        <time>2013-12-12T10:07:10Z</time>
      </trkpt>
      <trkpt lat="42.90467" lon="-0.69943">
        <ele>1297.917236</ele>
        <time>2013-12-12T10:07:29Z</time>
      </trkpt>
      <trkpt lat="42.90463" lon="-0.69966">
        <ele>1296.475342</ele>
        <time>2013-12-12T10:07:50Z</time>
      </trkpt>
      <trkpt lat="42.90462" lon="-0.6998">
        <ele>1296.955811</ele>
        <time>2013-12-12T10:08:05Z</time>
      </trkpt>
      <trkpt lat="42.90461" lon="-0.69995">
        <ele>1296.955811</ele>
        <time>2013-12-12T10:08:22Z</time>
      </trkpt>
      <trkpt lat="42.9046" lon="-0.7001">
        <ele>1297.436523</ele>
        <time>2013-12-12T10:08:37Z</time>
      </trkpt>
      <trkpt lat="42.90458" lon="-0.70024">
        <ele>1298.878418</ele>
        <time>2013-12-12T10:08:52Z</time>
      </trkpt>
      <trkpt lat="42.90458" lon="-0.70034">
        <ele>1300.320557</ele>
        <time>2013-12-12T10:09:01Z</time>
      </trkpt>
      <trkpt lat="42.90458" lon="-0.7005">
        <ele>1301.762451</ele>
        <time>2013-12-12T10:09:16Z</time>
      </trkpt>
      <trkpt lat="42.90459" lon="-0.70065">
        <ele>1303.204346</ele>
        <time>2013-12-12T10:09:31Z</time>
      </trkpt>
      <trkpt lat="42.90461" lon="-0.70081">
        <ele>1306.088135</ele>
        <time>2013-12-12T10:09:47Z</time>
      </trkpt>
      <trkpt lat="42.9046" lon="-0.70102">
        <ele>1309.453125</ele>
        <time>2013-12-12T10:10:08Z</time>
      </trkpt>
      <trkpt lat="42.90458" lon="-0.70115">
        <ele>1311.856445</ele>
        <time>2013-12-12T10:10:23Z</time>
      </trkpt>
      <trkpt lat="42.90453" lon="-0.7013">
        <ele>1315.220947</ele>
        <time>2013-12-12T10:10:40Z</time>
      </trkpt>
      <trkpt lat="42.90452" lon="-0.70148">
        <ele>1316.182129</ele>
        <time>2013-12-12T10:10:59Z</time>
      </trkpt>
      <trkpt lat="42.90459" lon="-0.70164">
        <ele>1318.585449</ele>
        <time>2013-12-12T10:11:19Z</time>
      </trkpt>
      <trkpt lat="42.90453" lon="-0.70182">
        <ele>1321.949951</ele>
        <time>2013-12-12T10:11:37Z</time>
      </trkpt>
      <trkpt lat="42.9045" lon="-0.70188">
        <ele>1322.911377</ele>
        <time>2013-12-12T10:11:43Z</time>
      </trkpt>
      <trkpt lat="42.90447" lon="-0.702">
        <ele>1326.276123</ele>
        <time>2013-12-12T10:11:57Z</time>
      </trkpt>
      <trkpt lat="42.90448" lon="-0.70215">
        <ele>1328.19873</ele>
        <time>2013-12-12T10:12:17Z</time>
      </trkpt>
      <trkpt lat="42.90439" lon="-0.70234">
        <ele>1329.640625</ele>
        <time>2013-12-12T10:12:38Z</time>
      </trkpt>
      <trkpt lat="42.90434" lon="-0.7025">
        <ele>1333.005127</ele>
        <time>2013-12-12T10:12:56Z</time>
      </trkpt>
      <trkpt lat="42.90436" lon="-0.7026">
        <ele>1335.408447</ele>
        <time>2013-12-12T10:13:10Z</time>
      </trkpt>
      <trkpt lat="42.9044" lon="-0.70276">
        <ele>1338.29248</ele>
        <time>2013-12-12T10:13:32Z</time>
      </trkpt>
      <trkpt lat="42.90442" lon="-0.70287">
        <ele>1341.176514</ele>
        <time>2013-12-12T10:13:47Z</time>
      </trkpt>
      <trkpt lat="42.90443" lon="-0.70302">
        <ele>1344.060547</ele>
        <time>2013-12-12T10:14:07Z</time>
      </trkpt>
      <trkpt lat="42.90444" lon="-0.70313">
        <ele>1345.502441</ele>
        <time>2013-12-12T10:14:24Z</time>
      </trkpt>
      <trkpt lat="42.90449" lon="-0.70323">
        <ele>1346.944336</ele>
        <time>2013-12-12T10:14:40Z</time>
      </trkpt>
      <trkpt lat="42.90456" lon="-0.70336">
        <ele>1348.38623</ele>
        <time>2013-12-12T10:14:57Z</time>
      </trkpt>
      <trkpt lat="42.9046" lon="-0.70356">
        <ele>1349.347656</ele>
        <time>2013-12-12T10:15:18Z</time>
      </trkpt>
      <trkpt lat="42.90448" lon="-0.70372">
        <ele>1352.231445</ele>
        <time>2013-12-12T10:15:37Z</time>
      </trkpt>
      <trkpt lat="42.90442" lon="-0.70385">
        <ele>1354.634766</ele>
        <time>2013-12-12T10:15:54Z</time>
      </trkpt>
      <trkpt lat="42.90435" lon="-0.70401">
        <ele>1356.076904</ele>
        <time>2013-12-12T10:16:13Z</time>
      </trkpt>
      <trkpt lat="42.90432" lon="-0.70418">
        <ele>1357.03833</ele>
        <time>2013-12-12T10:16:31Z</time>
      </trkpt>
      <trkpt lat="42.90434" lon="-0.70434">
        <ele>1357.999756</ele>
        <time>2013-12-12T10:16:48Z</time>
      </trkpt>
      <trkpt lat="42.90439" lon="-0.70447">
        <ele>1359.44165</ele>
        <time>2013-12-12T10:17:04Z</time>
      </trkpt>
      <trkpt lat="42.90439" lon="-0.70473">
        <ele>1361.364258</ele>
        <time>2013-12-12T10:17:25Z</time>
      </trkpt>
      <trkpt lat="42.90437" lon="-0.70494">
        <ele>1360.883545</ele>
        <time>2013-12-12T10:17:43Z</time>
      </trkpt>
      <trkpt lat="42.90434" lon="-0.70518">
        <ele>1362.325439</ele>
        <time>2013-12-12T10:18:02Z</time>
      </trkpt>
      <trkpt lat="42.90432" lon="-0.70535">
        <ele>1364.248047</ele>
        <time>2013-12-12T10:18:21Z</time>
      </trkpt>
      <trkpt lat="42.90432" lon="-0.70544">
        <ele>1364.72876</ele>
        <time>2013-12-12T10:18:48Z</time>
      </trkpt>
      <trkpt lat="42.90432" lon="-0.70559">
        <ele>1367.612549</ele>
        <time>2013-12-12T10:19:01Z</time>
      </trkpt>
      <trkpt lat="42.90431" lon="-0.7057">
        <ele>1367.612549</ele>
        <time>2013-12-12T10:19:19Z</time>
      </trkpt>
      <trkpt lat="42.9043" lon="-0.70571">
        <ele>1368.573975</ele>
        <time>2013-12-12T10:19:24Z</time>
      </trkpt>
      <trkpt lat="42.90431" lon="-0.70578">
        <ele>1369.5354</ele>
        <time>2013-12-12T10:19:32Z</time>
      </trkpt>
      <trkpt lat="42.90431" lon="-0.70588">
        <ele>1369.5354</ele>
        <time>2013-12-12T10:19:47Z</time>
      </trkpt>
      <trkpt lat="42.90431" lon="-0.70604">
        <ele>1369.5354</ele>
        <time>2013-12-12T10:20:07Z</time>
      </trkpt>
      <trkpt lat="42.90429" lon="-0.70625">
        <ele>1367.13208</ele>
        <time>2013-12-12T10:20:27Z</time>
      </trkpt>
      <trkpt lat="42.9043" lon="-0.70652">
        <ele>1367.612549</ele>
        <time>2013-12-12T10:20:49Z</time>
      </trkpt>
      <trkpt lat="42.90432" lon="-0.70665">
        <ele>1366.651367</ele>
        <time>2013-12-12T10:21:04Z</time>
      </trkpt>
      <trkpt lat="42.9043" lon="-0.7068">
        <ele>1366.651367</ele>
        <time>2013-12-12T10:21:19Z</time>
      </trkpt>
      <trkpt lat="42.90427" lon="-0.70702">
        <ele>1365.209473</ele>
        <time>2013-12-12T10:21:39Z</time>
      </trkpt>
      <trkpt lat="42.90422" lon="-0.70726">
        <ele>1362.806152</ele>
        <time>2013-12-12T10:22:00Z</time>
      </trkpt>
      <trkpt lat="42.90418" lon="-0.70752">
        <ele>1360.883545</ele>
        <time>2013-12-12T10:22:21Z</time>
      </trkpt>
      <trkpt lat="42.90415" lon="-0.70759">
        <ele>1360.402832</ele>
        <time>2013-12-12T10:22:27Z</time>
      </trkpt>
      <trkpt lat="42.90411" lon="-0.70774">
        <ele>1361.364258</ele>
        <time>2013-12-12T10:22:42Z</time>
      </trkpt>
      <trkpt lat="42.90405" lon="-0.70803">
        <ele>1361.844971</ele>
        <time>2013-12-12T10:23:05Z</time>
      </trkpt>
      <trkpt lat="42.90405" lon="-0.70829">
        <ele>1363.286865</ele>
        <time>2013-12-12T10:23:25Z</time>
      </trkpt>
      <trkpt lat="42.90408" lon="-0.70857">
        <ele>1364.248047</ele>
        <time>2013-12-12T10:23:47Z</time>
      </trkpt>
      <trkpt lat="42.90412" lon="-0.70884">
        <ele>1365.690186</ele>
        <time>2013-12-12T10:24:09Z</time>
      </trkpt>
      <trkpt lat="42.90415" lon="-0.70912">
        <ele>1367.13208</ele>
        <time>2013-12-12T10:24:31Z</time>
      </trkpt>
      <trkpt lat="42.9042" lon="-0.70939">
        <ele>1368.093262</ele>
        <time>2013-12-12T10:24:53Z</time>
      </trkpt>
      <trkpt lat="42.90429" lon="-0.70962">
        <ele>1369.5354</ele>
        <time>2013-12-12T10:25:14Z</time>
      </trkpt>
      <trkpt lat="42.90441" lon="-0.70983">
        <ele>1370.977295</ele>
        <time>2013-12-12T10:25:36Z</time>
      </trkpt>
      <trkpt lat="42.90445" lon="-0.71007">
        <ele>1373.861328</ele>
        <time>2013-12-12T10:25:58Z</time>
      </trkpt>
      <trkpt lat="42.90446" lon="-0.71033">
        <ele>1376.264648</ele>
        <time>2013-12-12T10:26:20Z</time>
      </trkpt>
      <trkpt lat="42.90451" lon="-0.71055">
        <ele>1379.148438</ele>
        <time>2013-12-12T10:26:40Z</time>
      </trkpt>
      <trkpt lat="42.90453" lon="-0.71076">
        <ele>1380.590576</ele>
        <time>2013-12-12T10:27:01Z</time>
      </trkpt>
      <trkpt lat="42.9045" lon="-0.71089">
        <ele>1380.590576</ele>
        <time>2013-12-12T10:27:17Z</time>
      </trkpt>
      <trkpt lat="42.90451" lon="-0.71093">
        <ele>1381.551758</ele>
        <time>2013-12-12T10:27:46Z</time>
      </trkpt>
      <trkpt lat="42.90454" lon="-0.71107">
        <ele>1383.474365</ele>
        <time>2013-12-12T10:28:05Z</time>
      </trkpt>
      <trkpt lat="42.90459" lon="-0.71121">
        <ele>1386.358398</ele>
        <time>2013-12-12T10:28:24Z</time>
      </trkpt>
      <trkpt lat="42.90461" lon="-0.71135">
        <ele>1389.242432</ele>
        <time>2013-12-12T10:28:41Z</time>
      </trkpt>
      <trkpt lat="42.90455" lon="-0.71153">
        <ele>1389.723145</ele>
        <time>2013-12-12T10:29:02Z</time>
      </trkpt>
      <trkpt lat="42.90456" lon="-0.71164">
        <ele>1393.087646</ele>
        <time>2013-12-12T10:29:17Z</time>
      </trkpt>
      <trkpt lat="42.90459" lon="-0.71175">
        <ele>1396.452393</ele>
        <time>2013-12-12T10:29:33Z</time>
      </trkpt>
      <trkpt lat="42.90466" lon="-0.71188">
        <ele>1397.413574</ele>
        <time>2013-12-12T10:29:53Z</time>
      </trkpt>
      <trkpt lat="42.9047" lon="-0.71196">
        <ele>1399.816895</ele>
        <time>2013-12-12T10:30:10Z</time>
      </trkpt>
      <trkpt lat="42.90475" lon="-0.71207">
        <ele>1403.181396</ele>
        <time>2013-12-12T10:30:29Z</time>
      </trkpt>
      <trkpt lat="42.90475" lon="-0.71211">
        <ele>1404.143066</ele>
        <time>2013-12-12T10:30:43Z</time>
      </trkpt>
      <trkpt lat="42.90478" lon="-0.71219">
        <ele>1407.026855</ele>
        <time>2013-12-12T10:31:06Z</time>
      </trkpt>
      <trkpt lat="42.90484" lon="-0.71229">
        <ele>1409.430176</ele>
        <time>2013-12-12T10:31:23Z</time>
      </trkpt>
      <trkpt lat="42.90492" lon="-0.71241">
        <ele>1412.313965</ele>
        <time>2013-12-12T10:31:42Z</time>
      </trkpt>
      <trkpt lat="42.90501" lon="-0.71249">
        <ele>1412.313965</ele>
        <time>2013-12-12T10:32:02Z</time>
      </trkpt>
      <trkpt lat="42.90505" lon="-0.71253">
        <ele>1413.755859</ele>
        <time>2013-12-12T10:32:18Z</time>
      </trkpt>
      <trkpt lat="42.90504" lon="-0.71261">
        <ele>1415.678711</ele>
        <time>2013-12-12T10:32:33Z</time>
      </trkpt>
      <trkpt lat="42.90507" lon="-0.71267">
        <ele>1418.081787</ele>
        <time>2013-12-12T10:32:51Z</time>
      </trkpt>
      <trkpt lat="42.90508" lon="-0.71273">
        <ele>1418.081787</ele>
        <time>2013-12-12T10:33:20Z</time>
      </trkpt>
      <trkpt lat="42.90511" lon="-0.71277">
        <ele>1419.043213</ele>
        <time>2013-12-12T10:33:33Z</time>
      </trkpt>
      <trkpt lat="42.90516" lon="-0.7128">
        <ele>1422.407959</ele>
        <time>2013-12-12T10:33:49Z</time>
      </trkpt>
      <trkpt lat="42.90516" lon="-0.71282">
        <ele>1422.407959</ele>
        <time>2013-12-12T10:33:58Z</time>
      </trkpt>
      <trkpt lat="42.90523" lon="-0.71282">
        <ele>1423.849854</ele>
        <time>2013-12-12T10:34:14Z</time>
      </trkpt>
      <trkpt lat="42.90529" lon="-0.71285">
        <ele>1424.330566</ele>
        <time>2013-12-12T10:34:29Z</time>
      </trkpt>
      <trkpt lat="42.90535" lon="-0.71292">
        <ele>1425.772461</ele>
        <time>2013-12-12T10:34:46Z</time>
      </trkpt>
      <trkpt lat="42.90538" lon="-0.71294">
        <ele>1428.175781</ele>
        <time>2013-12-12T10:35:03Z</time>
      </trkpt>
      <trkpt lat="42.90541" lon="-0.71298">
        <ele>1431.059814</ele>
        <time>2013-12-12T10:35:14Z</time>
      </trkpt>
      <trkpt lat="42.90546" lon="-0.71304">
        <ele>1432.501709</ele>
        <time>2013-12-12T10:35:29Z</time>
      </trkpt>
      <trkpt lat="42.90549" lon="-0.71309">
        <ele>1433.943604</ele>
        <time>2013-12-12T10:35:43Z</time>
      </trkpt>
      <trkpt lat="42.90552" lon="-0.71317">
        <ele>1434.905029</ele>
        <time>2013-12-12T10:36:01Z</time>
      </trkpt>
      <trkpt lat="42.90552" lon="-0.71321">
        <ele>1435.866211</ele>
        <time>2013-12-12T10:36:19Z</time>
      </trkpt>
      <trkpt lat="42.90553" lon="-0.71329">
        <ele>1436.827637</ele>
        <time>2013-12-12T10:36:41Z</time>
      </trkpt>
      <trkpt lat="42.90554" lon="-0.71332">
        <ele>1438.269775</ele>
        <time>2013-12-12T10:36:57Z</time>
      </trkpt>
      <trkpt lat="42.90557" lon="-0.71337">
        <ele>1439.230957</ele>
        <time>2013-12-12T10:37:14Z</time>
      </trkpt>
      <trkpt lat="42.90557" lon="-0.71339">
        <ele>1440.672852</ele>
        <time>2013-12-12T10:37:17Z</time>
      </trkpt>
      <trkpt lat="42.90555" lon="-0.71348">
        <ele>1442.595703</ele>
        <time>2013-12-12T10:37:34Z</time>
      </trkpt>
      <trkpt lat="42.90552" lon="-0.71348">
        <ele>1444.037598</ele>
        <time>2013-12-12T10:37:49Z</time>
      </trkpt>
      <trkpt lat="42.90548" lon="-0.71347">
        <ele>1446.440918</ele>
        <time>2013-12-12T10:38:06Z</time>
      </trkpt>
      <trkpt lat="42.90546" lon="-0.71346">
        <ele>1448.363281</ele>
        <time>2013-12-12T10:38:23Z</time>
      </trkpt>
      <trkpt lat="42.90544" lon="-0.71345">
        <ele>1450.286133</ele>
        <time>2013-12-12T10:38:43Z</time>
      </trkpt>
      <trkpt lat="42.90538" lon="-0.71346">
        <ele>1451.728027</ele>
        <time>2013-12-12T10:39:00Z</time>
      </trkpt>
      <trkpt lat="42.90534" lon="-0.71347">
        <ele>1453.650879</ele>
        <time>2013-12-12T10:39:14Z</time>
      </trkpt>
      <trkpt lat="42.90532" lon="-0.71349">
        <ele>1454.131592</ele>
        <time>2013-12-12T10:39:36Z</time>
      </trkpt>
      <trkpt lat="42.90529" lon="-0.71348">
        <ele>1455.092773</ele>
        <time>2013-12-12T10:40:12Z</time>
      </trkpt>
      <trkpt lat="42.90533" lon="-0.71354">
        <ele>1456.053955</ele>
        <time>2013-12-12T10:40:26Z</time>
      </trkpt>
      <trkpt lat="42.90535" lon="-0.71362">
        <ele>1458.937988</ele>
        <time>2013-12-12T10:40:42Z</time>
      </trkpt>
      <trkpt lat="42.90534" lon="-0.71363">
        <ele>1460.379883</ele>
        <time>2013-12-12T10:40:46Z</time>
      </trkpt>
      <trkpt lat="42.90532" lon="-0.7137">
        <ele>1462.783203</ele>
        <time>2013-12-12T10:41:04Z</time>
      </trkpt>
      <trkpt lat="42.90529" lon="-0.71377">
        <ele>1464.225098</ele>
        <time>2013-12-12T10:41:20Z</time>
      </trkpt>
      <trkpt lat="42.9053" lon="-0.71385">
        <ele>1466.628418</ele>
        <time>2013-12-12T10:41:37Z</time>
      </trkpt>
      <trkpt lat="42.9053" lon="-0.71393">
        <ele>1466.628418</ele>
        <time>2013-12-12T10:41:54Z</time>
      </trkpt>
      <trkpt lat="42.9053" lon="-0.71397">
        <ele>1470.473877</ele>
        <time>2013-12-12T10:42:05Z</time>
      </trkpt>
      <trkpt lat="42.9053" lon="-0.71397">
        <ele>1469.512695</ele>
        <time>2013-12-12T10:42:17Z</time>
      </trkpt>
      <trkpt lat="42.90531" lon="-0.71402">
        <ele>1470.95459</ele>
        <time>2013-12-12T10:42:26Z</time>
      </trkpt>
      <trkpt lat="42.90533" lon="-0.71408">
        <ele>1472.877197</ele>
        <time>2013-12-12T10:42:41Z</time>
      </trkpt>
      <trkpt lat="42.90527" lon="-0.71413">
        <ele>1474.319092</ele>
        <time>2013-12-12T10:43:01Z</time>
      </trkpt>
      <trkpt lat="42.90525" lon="-0.71419">
        <ele>1477.203125</ele>
        <time>2013-12-12T10:43:17Z</time>
      </trkpt>
      <trkpt lat="42.90525" lon="-0.71427">
        <ele>1477.683594</ele>
        <time>2013-12-12T10:43:46Z</time>
      </trkpt>
      <trkpt lat="42.90527" lon="-0.71432">
        <ele>1478.64502</ele>
        <time>2013-12-12T10:44:22Z</time>
      </trkpt>
      <trkpt lat="42.90534" lon="-0.7143">
        <ele>1479.606201</ele>
        <time>2013-12-12T10:44:40Z</time>
      </trkpt>
      <trkpt lat="42.90539" lon="-0.71433">
        <ele>1482.009521</ele>
        <time>2013-12-12T10:44:49Z</time>
      </trkpt>
      <trkpt lat="42.9054" lon="-0.71436">
        <ele>1483.932129</ele>
        <time>2013-12-12T10:45:09Z</time>
      </trkpt>
      <trkpt lat="42.9054" lon="-0.71437">
        <ele>1484.893799</ele>
        <time>2013-12-12T10:45:26Z</time>
      </trkpt>
      <trkpt lat="42.90538" lon="-0.71444">
        <ele>1487.777588</ele>
        <time>2013-12-12T10:45:40Z</time>
      </trkpt>
      <trkpt lat="42.90542" lon="-0.7145">
        <ele>1491.14209</ele>
        <time>2013-12-12T10:45:56Z</time>
      </trkpt>
      <trkpt lat="42.90548" lon="-0.71452">
        <ele>1493.064697</ele>
        <time>2013-12-12T10:46:17Z</time>
      </trkpt>
      <trkpt lat="42.90552" lon="-0.71451">
        <ele>1494.026123</ele>
        <time>2013-12-12T10:46:36Z</time>
      </trkpt>
      <trkpt lat="42.90552" lon="-0.71456">
        <ele>1496.429443</ele>
        <time>2013-12-12T10:46:51Z</time>
      </trkpt>
      <trkpt lat="42.90553" lon="-0.7146">
        <ele>1496.909912</ele>
        <time>2013-12-12T10:47:08Z</time>
      </trkpt>
      <trkpt lat="42.90557" lon="-0.71464">
        <ele>1500.274902</ele>
        <time>2013-12-12T10:47:19Z</time>
      </trkpt>
      <trkpt lat="42.90557" lon="-0.71469">
        <ele>1500.274902</ele>
        <time>2013-12-12T10:47:47Z</time>
      </trkpt>
      <trkpt lat="42.90561" lon="-0.71473">
        <ele>1503.639404</ele>
        <time>2013-12-12T10:48:05Z</time>
      </trkpt>
      <trkpt lat="42.90563" lon="-0.71481">
        <ele>1505.081299</ele>
        <time>2013-12-12T10:48:24Z</time>
      </trkpt>
      <trkpt lat="42.90566" lon="-0.71489">
        <ele>1507.484619</ele>
        <time>2013-12-12T10:48:42Z</time>
      </trkpt>
      <trkpt lat="42.90569" lon="-0.71493">
        <ele>1508.926514</ele>
        <time>2013-12-12T10:49:12Z</time>
      </trkpt>
      <trkpt lat="42.90573" lon="-0.71498">
        <ele>1512.291016</ele>
        <time>2013-12-12T10:49:29Z</time>
      </trkpt>
      <trkpt lat="42.90574" lon="-0.71505">
        <ele>1513.252441</ele>
        <time>2013-12-12T10:49:45Z</time>
      </trkpt>
      <trkpt lat="42.90574" lon="-0.71509">
        <ele>1515.655762</ele>
        <time>2013-12-12T10:50:02Z</time>
      </trkpt>
      <trkpt lat="42.90576" lon="-0.71515">
        <ele>1518.539795</ele>
        <time>2013-12-12T10:50:16Z</time>
      </trkpt>
      <trkpt lat="42.90575" lon="-0.71524">
        <ele>1519.020508</ele>
        <time>2013-12-12T10:50:37Z</time>
      </trkpt>
      <trkpt lat="42.90577" lon="-0.71528">
        <ele>1522.865723</ele>
        <time>2013-12-12T10:50:57Z</time>
      </trkpt>
      <trkpt lat="42.90582" lon="-0.71531">
        <ele>1522.865723</ele>
        <time>2013-12-12T10:51:10Z</time>
      </trkpt>
      <trkpt lat="42.90586" lon="-0.71535">
        <ele>1522.865723</ele>
        <time>2013-12-12T10:51:27Z</time>
      </trkpt>
      <trkpt lat="42.90593" lon="-0.71537">
        <ele>1524.78833</ele>
        <time>2013-12-12T10:51:47Z</time>
      </trkpt>
      <trkpt lat="42.90597" lon="-0.71539">
        <ele>1525.749512</ele>
        <time>2013-12-12T10:52:11Z</time>
      </trkpt>
      <trkpt lat="42.90597" lon="-0.71546">
        <ele>1528.152832</ele>
        <time>2013-12-12T10:52:31Z</time>
      </trkpt>
      <trkpt lat="42.90604" lon="-0.71552">
        <ele>1531.036865</ele>
        <time>2013-12-12T10:52:48Z</time>
      </trkpt>
      <trkpt lat="42.90606" lon="-0.71558">
        <ele>1533.920898</ele>
        <time>2013-12-12T10:53:04Z</time>
      </trkpt>
      <trkpt lat="42.90603" lon="-0.71569">
        <ele>1534.882324</ele>
        <time>2013-12-12T10:53:20Z</time>
      </trkpt>
      <trkpt lat="42.90606" lon="-0.71577">
        <ele>1537.766113</ele>
        <time>2013-12-12T10:53:36Z</time>
      </trkpt>
      <trkpt lat="42.9061" lon="-0.71582">
        <ele>1539.208008</ele>
        <time>2013-12-12T10:53:51Z</time>
      </trkpt>
      <trkpt lat="42.90615" lon="-0.71584">
        <ele>1542.572754</ele>
        <time>2013-12-12T10:54:04Z</time>
      </trkpt>
      <trkpt lat="42.90622" lon="-0.71586">
        <ele>1544.97583</ele>
        <time>2013-12-12T10:54:26Z</time>
      </trkpt>
      <trkpt lat="42.90622" lon="-0.71589">
        <ele>1545.456543</ele>
        <time>2013-12-12T10:54:44Z</time>
      </trkpt>
      <trkpt lat="42.90623" lon="-0.71587">
        <ele>1544.97583</ele>
        <time>2013-12-12T10:55:21Z</time>
      </trkpt>
      <trkpt lat="42.90626" lon="-0.71588">
        <ele>1544.495117</ele>
        <time>2013-12-12T10:55:53Z</time>
      </trkpt>
      <trkpt lat="42.90631" lon="-0.71589">
        <ele>1544.97583</ele>
        <time>2013-12-12T10:56:11Z</time>
      </trkpt>
      <trkpt lat="42.90631" lon="-0.71591">
        <ele>1544.97583</ele>
        <time>2013-12-12T10:56:29Z</time>
      </trkpt>
      <trkpt lat="42.90634" lon="-0.71592">
        <ele>1546.898438</ele>
        <time>2013-12-12T10:56:45Z</time>
      </trkpt>
      <trkpt lat="42.90637" lon="-0.71596">
        <ele>1547.859863</ele>
        <time>2013-12-12T10:57:01Z</time>
      </trkpt>
      <trkpt lat="42.90649" lon="-0.71605">
        <ele>1548.821289</ele>
        <time>2013-12-12T10:57:24Z</time>
      </trkpt>
      <trkpt lat="42.90657" lon="-0.71613">
        <ele>1549.782715</ele>
        <time>2013-12-12T10:57:42Z</time>
      </trkpt>
      <trkpt lat="42.90664" lon="-0.71619">
        <ele>1552.185791</ele>
        <time>2013-12-12T10:57:59Z</time>
      </trkpt>
      <trkpt lat="42.90668" lon="-0.71624">
        <ele>1553.147217</ele>
        <time>2013-12-12T10:58:15Z</time>
      </trkpt>
      <trkpt lat="42.90676" lon="-0.71628">
        <ele>1554.108643</ele>
        <time>2013-12-12T10:58:31Z</time>
      </trkpt>
      <trkpt lat="42.90685" lon="-0.71632">
        <ele>1554.108643</ele>
        <time>2013-12-12T10:58:47Z</time>
      </trkpt>
      <trkpt lat="42.90697" lon="-0.71637">
        <ele>1553.147217</ele>
        <time>2013-12-12T10:59:07Z</time>
      </trkpt>
      <trkpt lat="42.90707" lon="-0.71642">
        <ele>1551.705322</ele>
        <time>2013-12-12T10:59:24Z</time>
      </trkpt>
      <trkpt lat="42.90719" lon="-0.71654">
        <ele>1552.666504</ele>
        <time>2013-12-12T10:59:43Z</time>
      </trkpt>
      <trkpt lat="42.90722" lon="-0.71657">
        <ele>1554.108643</ele>
        <time>2013-12-12T10:59:48Z</time>
      </trkpt>
      <trkpt lat="42.90734" lon="-0.71671">
        <ele>1556.511719</ele>
        <time>2013-12-12T11:00:11Z</time>
      </trkpt>
      <trkpt lat="42.90734" lon="-0.71673">
        <ele>1556.031006</ele>
        <time>2013-12-12T11:00:34Z</time>
      </trkpt>
      <trkpt lat="42.90741" lon="-0.71681">
        <ele>1558.915039</ele>
        <time>2013-12-12T11:00:49Z</time>
      </trkpt>
      <trkpt lat="42.90748" lon="-0.7169">
        <ele>1561.318359</ele>
        <time>2013-12-12T11:01:03Z</time>
      </trkpt>
      <trkpt lat="42.90756" lon="-0.717">
        <ele>1562.279541</ele>
        <time>2013-12-12T11:01:16Z</time>
      </trkpt>
      <trkpt lat="42.90764" lon="-0.71711">
        <ele>1565.644531</ele>
        <time>2013-12-12T11:01:33Z</time>
      </trkpt>
      <trkpt lat="42.9077" lon="-0.71727">
        <ele>1567.086426</ele>
        <time>2013-12-12T11:01:58Z</time>
      </trkpt>
      <trkpt lat="42.90776" lon="-0.71742">
        <ele>1568.047607</ele>
        <time>2013-12-12T11:02:13Z</time>
      </trkpt>
      <trkpt lat="42.90778" lon="-0.7176">
        <ele>1569.970215</ele>
        <time>2013-12-12T11:02:28Z</time>
      </trkpt>
      <trkpt lat="42.90782" lon="-0.71782">
        <ele>1573.334961</ele>
        <time>2013-12-12T11:02:46Z</time>
      </trkpt>
      <trkpt lat="42.90786" lon="-0.718">
        <ele>1575.257324</ele>
        <time>2013-12-12T11:03:01Z</time>
      </trkpt>
      <trkpt lat="42.90788" lon="-0.71811">
        <ele>1576.699463</ele>
        <time>2013-12-12T11:03:09Z</time>
      </trkpt>
      <trkpt lat="42.90788" lon="-0.71825">
        <ele>1578.141357</ele>
        <time>2013-12-12T11:03:24Z</time>
      </trkpt>
      <trkpt lat="42.90789" lon="-0.71827">
        <ele>1578.141357</ele>
        <time>2013-12-12T11:03:25Z</time>
      </trkpt>
      <trkpt lat="42.9079" lon="-0.71828">
        <ele>1579.102539</ele>
        <time>2013-12-12T11:03:27Z</time>
      </trkpt>
      <trkpt lat="42.90793" lon="-0.71856">
        <ele>1582.467529</ele>
        <time>2013-12-12T11:03:48Z</time>
      </trkpt>
      <trkpt lat="42.90793" lon="-0.71869">
        <ele>1583.428711</ele>
        <time>2013-12-12T11:04:04Z</time>
      </trkpt>
      <trkpt lat="42.90794" lon="-0.71897">
        <ele>1584.87085</ele>
        <time>2013-12-12T11:04:24Z</time>
      </trkpt>
      <trkpt lat="42.90799" lon="-0.71904">
        <ele>1586.793213</ele>
        <time>2013-12-12T11:04:41Z</time>
      </trkpt>
      <trkpt lat="42.90799" lon="-0.71904">
        <ele>1586.793213</ele>
        <time>2013-12-12T11:05:07Z</time>
      </trkpt>
      <trkpt lat="42.90799" lon="-0.71905">
        <ele>1587.754639</ele>
        <time>2013-12-12T11:12:40Z</time>
      </trkpt>
      <trkpt lat="42.90798" lon="-0.71905">
        <ele>1586.793213</ele>
        <time>2013-12-12T11:13:54Z</time>
      </trkpt>
      <trkpt lat="42.90799" lon="-0.71905">
        <ele>1588.235352</ele>
        <time>2013-12-12T11:15:17Z</time>
      </trkpt>
      <trkpt lat="42.908" lon="-0.71904">
        <ele>1588.716064</ele>
        <time>2013-12-12T11:16:59Z</time>
      </trkpt>
      <trkpt lat="42.90798" lon="-0.71905">
        <ele>1589.196533</ele>
        <time>2013-12-12T11:18:22Z</time>
      </trkpt>
      <trkpt lat="42.90798" lon="-0.71905">
        <ele>1588.716064</ele>
        <time>2013-12-12T11:24:10Z</time>
      </trkpt>
      <trkpt lat="42.90795" lon="-0.71905">
        <ele>1588.716064</ele>
        <time>2013-12-12T11:25:49Z</time>
      </trkpt>
      <trkpt lat="42.90804" lon="-0.71903">
        <ele>1590.157959</ele>
        <time>2013-12-12T11:36:38Z</time>
      </trkpt>
      <trkpt lat="42.90804" lon="-0.71904">
        <ele>1589.677246</ele>
        <time>2013-12-12T11:38:21Z</time>
      </trkpt>
      <trkpt lat="42.90793" lon="-0.71906">
        <ele>1590.638428</ele>
        <time>2013-12-12T11:38:55Z</time>
      </trkpt>
      <trkpt lat="42.90789" lon="-0.71905">
        <ele>1591.599854</ele>
        <time>2013-12-12T11:39:56Z</time>
      </trkpt>
      <trkpt lat="42.908" lon="-0.71906">
        <ele>1592.080566</ele>
        <time>2013-12-12T11:40:57Z</time>
      </trkpt>
      <trkpt lat="42.90772" lon="-0.71911">
        <ele>1592.561279</ele>
        <time>2013-12-12T11:41:53Z</time>
      </trkpt>
      <trkpt lat="42.90804" lon="-0.71904">
        <ele>1593.041748</ele>
        <time>2013-12-12T11:43:22Z</time>
      </trkpt>
      <trkpt lat="42.90822" lon="-0.71891">
        <ele>1594.964355</ele>
        <time>2013-12-12T11:45:39Z</time>
      </trkpt>
      <trkpt lat="42.90797" lon="-0.71901">
        <ele>1594.483643</ele>
        <time>2013-12-12T11:46:01Z</time>
      </trkpt>
      <trkpt lat="42.9078" lon="-0.71907">
        <ele>1595.445068</ele>
        <time>2013-12-12T11:46:43Z</time>
      </trkpt>
      <trkpt lat="42.9078" lon="-0.71909">
        <ele>1598.329102</ele>
        <time>2013-12-12T11:48:31Z</time>
      </trkpt>
      <trkpt lat="42.90769" lon="-0.71911">
        <ele>1598.329102</ele>
        <time>2013-12-12T11:49:00Z</time>
      </trkpt>
      <trkpt lat="42.90737" lon="-0.71915">
        <ele>1599.77124</ele>
        <time>2013-12-12T11:49:12Z</time>
      </trkpt>
      <trkpt lat="42.90692" lon="-0.71922">
        <ele>1601.213135</ele>
        <time>2013-12-12T11:49:44Z</time>
      </trkpt>
      <trkpt lat="42.9065" lon="-0.71928">
        <ele>1601.213135</ele>
        <time>2013-12-12T11:50:16Z</time>
      </trkpt>
      <trkpt lat="42.90735" lon="-0.71914">
        <ele>1602.174316</ele>
        <time>2013-12-12T11:51:24Z</time>
      </trkpt>
      <trkpt lat="42.90797" lon="-0.71905">
        <ele>1602.655029</ele>
        <time>2013-12-12T11:51:50Z</time>
      </trkpt>
      <trkpt lat="42.9079" lon="-0.71906">
        <ele>1603.135742</ele>
        <time>2013-12-12T11:52:16Z</time>
      </trkpt>
      <trkpt lat="42.90794" lon="-0.71906">
        <ele>1605.05835</ele>
        <time>2013-12-12T11:55:27Z</time>
      </trkpt>
      <trkpt lat="42.90804" lon="-0.71905">
        <ele>1605.05835</ele>
        <time>2013-12-12T11:56:17Z</time>
      </trkpt>
      <trkpt lat="42.90809" lon="-0.71904">
        <ele>1603.616455</ele>
        <time>2013-12-12T11:57:41Z</time>
      </trkpt>
      <trkpt lat="42.9081" lon="-0.71905">
        <ele>1603.616455</ele>
        <time>2013-12-12T12:00:30Z</time>
      </trkpt>
      <trkpt lat="42.90805" lon="-0.71908">
        <ele>1601.213135</ele>
        <time>2013-12-12T12:02:45Z</time>
      </trkpt>
      <trkpt lat="42.90803" lon="-0.71907">
        <ele>1602.174316</ele>
        <time>2013-12-12T12:04:14Z</time>
      </trkpt>
      <trkpt lat="42.90802" lon="-0.71906">
        <ele>1600.732422</ele>
        <time>2013-12-12T12:04:55Z</time>
      </trkpt>
      <trkpt lat="42.90804" lon="-0.71903">
        <ele>1595.445068</ele>
        <time>2013-12-12T12:05:10Z</time>
      </trkpt>
      <trkpt lat="42.90803" lon="-0.71903">
        <ele>1604.097168</ele>
        <time>2013-12-12T12:05:11Z</time>
      </trkpt>
      <trkpt lat="42.90803" lon="-0.71903">
        <ele>1603.616455</ele>
        <time>2013-12-12T12:05:12Z</time>
      </trkpt>
      <trkpt lat="42.90805" lon="-0.71902">
        <ele>1600.732422</ele>
        <time>2013-12-12T12:05:15Z</time>
      </trkpt>
      <trkpt lat="42.90802" lon="-0.71903">
        <ele>1594.483643</ele>
        <time>2013-12-12T12:05:19Z</time>
      </trkpt>
      <trkpt lat="42.90802" lon="-0.71903">
        <ele>1600.732422</ele>
        <time>2013-12-12T12:05:20Z</time>
      </trkpt>
      <trkpt lat="42.90802" lon="-0.71902">
        <ele>1596.887207</ele>
        <time>2013-12-12T12:05:21Z</time>
      </trkpt>
      <trkpt lat="42.90802" lon="-0.71903">
        <ele>1603.616455</ele>
        <time>2013-12-12T12:05:22Z</time>
      </trkpt>
      <trkpt lat="42.90801" lon="-0.71904">
        <ele>1591.599854</ele>
        <time>2013-12-12T12:05:23Z</time>
      </trkpt>
      <trkpt lat="42.908" lon="-0.71905">
        <ele>1598.809814</ele>
        <time>2013-12-12T12:05:24Z</time>
      </trkpt>
      <trkpt lat="42.90799" lon="-0.71906">
        <ele>1602.655029</ele>
        <time>2013-12-12T12:05:26Z</time>
      </trkpt>
      <trkpt lat="42.908" lon="-0.71906">
        <ele>1596.887207</ele>
        <time>2013-12-12T12:05:27Z</time>
      </trkpt>
      <trkpt lat="42.90801" lon="-0.71906">
        <ele>1590.638428</ele>
        <time>2013-12-12T12:05:28Z</time>
      </trkpt>
      <trkpt lat="42.90801" lon="-0.71906">
        <ele>1607.942383</ele>
        <time>2013-12-12T12:05:29Z</time>
      </trkpt>
      <trkpt lat="42.90802" lon="-0.71906">
        <ele>1592.561279</ele>
        <time>2013-12-12T12:05:30Z</time>
      </trkpt>
      <trkpt lat="42.90802" lon="-0.71906">
        <ele>1599.290527</ele>
        <time>2013-12-12T12:05:31Z</time>
      </trkpt>
      <trkpt lat="42.90801" lon="-0.71911">
        <ele>1592.561279</ele>
        <time>2013-12-12T12:05:37Z</time>
      </trkpt>
      <trkpt lat="42.908" lon="-0.7191">
        <ele>1603.616455</ele>
        <time>2013-12-12T12:05:38Z</time>
      </trkpt>
      <trkpt lat="42.90802" lon="-0.71909">
        <ele>1585.351318</ele>
        <time>2013-12-12T12:05:39Z</time>
      </trkpt>
      <trkpt lat="42.90802" lon="-0.71907">
        <ele>1606.019531</ele>
        <time>2013-12-12T12:05:40Z</time>
      </trkpt>
      <trkpt lat="42.90803" lon="-0.71905">
        <ele>1599.77124</ele>
        <time>2013-12-12T12:05:41Z</time>
      </trkpt>
      <trkpt lat="42.90806" lon="-0.71902">
        <ele>1598.809814</ele>
        <time>2013-12-12T12:05:43Z</time>
      </trkpt>
      <trkpt lat="42.90806" lon="-0.719">
        <ele>1610.345459</ele>
        <time>2013-12-12T12:05:44Z</time>
      </trkpt>
      <trkpt lat="42.90808" lon="-0.71899">
        <ele>1610.345459</ele>
        <time>2013-12-12T12:05:45Z</time>
      </trkpt>
      <trkpt lat="42.90809" lon="-0.71898">
        <ele>1601.693848</ele>
        <time>2013-12-12T12:05:46Z</time>
      </trkpt>
      <trkpt lat="42.90811" lon="-0.71896">
        <ele>1600.251953</ele>
        <time>2013-12-12T12:05:48Z</time>
      </trkpt>
      <trkpt lat="42.90801" lon="-0.71892">
        <ele>1599.290527</ele>
        <time>2013-12-12T12:06:28Z</time>
      </trkpt>
      <trkpt lat="42.90803" lon="-0.71903">
        <ele>1599.290527</ele>
        <time>2013-12-12T12:08:08Z</time>
      </trkpt>
      <trkpt lat="42.90799" lon="-0.71905">
        <ele>1596.406738</ele>
        <time>2013-12-12T12:08:21Z</time>
      </trkpt>
      <trkpt lat="42.90799" lon="-0.71905">
        <ele>1596.406738</ele>
        <time>2013-12-12T12:08:22Z</time>
      </trkpt>
      <trkpt lat="42.90797" lon="-0.719">
        <ele>1595.445068</ele>
        <time>2013-12-12T12:08:43Z</time>
      </trkpt>
      <trkpt lat="42.90797" lon="-0.71894">
        <ele>1594.003174</ele>
        <time>2013-12-12T12:08:49Z</time>
      </trkpt>
      <trkpt lat="42.90795" lon="-0.71873">
        <ele>1594.003174</ele>
        <time>2013-12-12T12:09:08Z</time>
      </trkpt>
      <trkpt lat="42.90793" lon="-0.71846">
        <ele>1592.080566</ele>
        <time>2013-12-12T12:09:30Z</time>
      </trkpt>
      <trkpt lat="42.90789" lon="-0.71826">
        <ele>1589.677246</ele>
        <time>2013-12-12T12:09:47Z</time>
      </trkpt>
      <trkpt lat="42.90789" lon="-0.7181">
        <ele>1588.235352</ele>
        <time>2013-12-12T12:10:06Z</time>
      </trkpt>
      <trkpt lat="42.90785" lon="-0.71795">
        <ele>1586.793213</ele>
        <time>2013-12-12T12:10:20Z</time>
      </trkpt>
      <trkpt lat="42.90783" lon="-0.71778">
        <ele>1582.947998</ele>
        <time>2013-12-12T12:10:35Z</time>
      </trkpt>
      <trkpt lat="42.9078" lon="-0.71753">
        <ele>1580.544922</ele>
        <time>2013-12-12T12:10:55Z</time>
      </trkpt>
      <trkpt lat="42.90779" lon="-0.7174">
        <ele>1578.141357</ele>
        <time>2013-12-12T12:11:06Z</time>
      </trkpt>
      <trkpt lat="42.90778" lon="-0.71716">
        <ele>1575.738037</ele>
        <time>2013-12-12T12:11:25Z</time>
      </trkpt>
      <trkpt lat="42.90781" lon="-0.7169">
        <ele>1572.854248</ele>
        <time>2013-12-12T12:11:46Z</time>
      </trkpt>
      <trkpt lat="42.9078" lon="-0.71668">
        <ele>1569.489746</ele>
        <time>2013-12-12T12:12:04Z</time>
      </trkpt>
      <trkpt lat="42.90779" lon="-0.71661">
        <ele>1568.047607</ele>
        <time>2013-12-12T12:12:10Z</time>
      </trkpt>
      <trkpt lat="42.90779" lon="-0.7164">
        <ele>1565.644531</ele>
        <time>2013-12-12T12:12:29Z</time>
      </trkpt>
      <trkpt lat="42.9078" lon="-0.71629">
        <ele>1564.683105</ele>
        <time>2013-12-12T12:12:45Z</time>
      </trkpt>
      <trkpt lat="42.90782" lon="-0.71611">
        <ele>1562.760254</ele>
        <time>2013-12-12T12:12:59Z</time>
      </trkpt>
      <trkpt lat="42.9078" lon="-0.71597">
        <ele>1560.356934</ele>
        <time>2013-12-12T12:13:12Z</time>
      </trkpt>
      <trkpt lat="42.90779" lon="-0.71585">
        <ele>1556.992432</ele>
        <time>2013-12-12T12:13:23Z</time>
      </trkpt>
      <trkpt lat="42.90774" lon="-0.71563">
        <ele>1556.511719</ele>
        <time>2013-12-12T12:13:41Z</time>
      </trkpt>
      <trkpt lat="42.90763" lon="-0.71551">
        <ele>1554.108643</ele>
        <time>2013-12-12T12:13:58Z</time>
      </trkpt>
      <trkpt lat="42.90753" lon="-0.71533">
        <ele>1550.263428</ele>
        <time>2013-12-12T12:14:18Z</time>
      </trkpt>
      <trkpt lat="42.90744" lon="-0.71519">
        <ele>1547.37915</ele>
        <time>2013-12-12T12:14:34Z</time>
      </trkpt>
      <trkpt lat="42.90736" lon="-0.71505">
        <ele>1544.014648</ele>
        <time>2013-12-12T12:14:50Z</time>
      </trkpt>
      <trkpt lat="42.9072" lon="-0.71496">
        <ele>1541.130615</ele>
        <time>2013-12-12T12:15:08Z</time>
      </trkpt>
      <trkpt lat="42.90709" lon="-0.71482">
        <ele>1540.169434</ele>
        <time>2013-12-12T12:15:25Z</time>
      </trkpt>
      <trkpt lat="42.90702" lon="-0.71478">
        <ele>1536.804688</ele>
        <time>2013-12-12T12:15:34Z</time>
      </trkpt>
      <trkpt lat="42.90698" lon="-0.71473">
        <ele>1533.440186</ele>
        <time>2013-12-12T12:15:41Z</time>
      </trkpt>
      <trkpt lat="42.9069" lon="-0.71468">
        <ele>1530.075439</ele>
        <time>2013-12-12T12:15:54Z</time>
      </trkpt>
      <trkpt lat="42.90689" lon="-0.71468">
        <ele>1530.556152</ele>
        <time>2013-12-12T12:15:55Z</time>
      </trkpt>
      <trkpt lat="42.90684" lon="-0.71465">
        <ele>1527.19165</ele>
        <time>2013-12-12T12:16:04Z</time>
      </trkpt>
      <trkpt lat="42.90674" lon="-0.71462">
        <ele>1524.307617</ele>
        <time>2013-12-12T12:16:17Z</time>
      </trkpt>
      <trkpt lat="42.90669" lon="-0.71461">
        <ele>1520.462402</ele>
        <time>2013-12-12T12:16:28Z</time>
      </trkpt>
      <trkpt lat="42.90664" lon="-0.71454">
        <ele>1517.578369</ele>
        <time>2013-12-12T12:16:43Z</time>
      </trkpt>
      <trkpt lat="42.90658" lon="-0.71444">
        <ele>1515.175049</ele>
        <time>2013-12-12T12:16:58Z</time>
      </trkpt>
      <trkpt lat="42.90651" lon="-0.71437">
        <ele>1511.810547</ele>
        <time>2013-12-12T12:17:11Z</time>
      </trkpt>
      <trkpt lat="42.90642" lon="-0.7143">
        <ele>1508.445801</ele>
        <time>2013-12-12T12:17:22Z</time>
      </trkpt>
      <trkpt lat="42.90636" lon="-0.71429">
        <ele>1505.081299</ele>
        <time>2013-12-12T12:17:36Z</time>
      </trkpt>
      <trkpt lat="42.90635" lon="-0.71425">
        <ele>1502.197266</ele>
        <time>2013-12-12T12:17:44Z</time>
      </trkpt>
      <trkpt lat="42.90635" lon="-0.71418">
        <ele>1500.755371</ele>
        <time>2013-12-12T12:17:57Z</time>
      </trkpt>
      <trkpt lat="42.90633" lon="-0.71406">
        <ele>1497.390625</ele>
        <time>2013-12-12T12:18:10Z</time>
      </trkpt>
      <trkpt lat="42.90632" lon="-0.71405">
        <ele>1496.429443</ele>
        <time>2013-12-12T12:18:12Z</time>
      </trkpt>
      <trkpt lat="42.9063" lon="-0.71397">
        <ele>1494.026123</ele>
        <time>2013-12-12T12:18:20Z</time>
      </trkpt>
      <trkpt lat="42.90626" lon="-0.71389">
        <ele>1491.622803</ele>
        <time>2013-12-12T12:18:32Z</time>
      </trkpt>
      <trkpt lat="42.90621" lon="-0.71383">
        <ele>1488.739014</ele>
        <time>2013-12-12T12:18:44Z</time>
      </trkpt>
      <trkpt lat="42.90617" lon="-0.71375">
        <ele>1485.85498</ele>
        <time>2013-12-12T12:18:56Z</time>
      </trkpt>
      <trkpt lat="42.90617" lon="-0.71366">
        <ele>1483.451416</ele>
        <time>2013-12-12T12:19:07Z</time>
      </trkpt>
      <trkpt lat="42.90615" lon="-0.71359">
        <ele>1482.490234</ele>
        <time>2013-12-12T12:19:20Z</time>
      </trkpt>
      <trkpt lat="42.90613" lon="-0.71352">
        <ele>1478.64502</ele>
        <time>2013-12-12T12:19:35Z</time>
      </trkpt>
      <trkpt lat="42.90613" lon="-0.71351">
        <ele>1479.125488</ele>
        <time>2013-12-12T12:19:36Z</time>
      </trkpt>
      <trkpt lat="42.90611" lon="-0.71349">
        <ele>1477.203125</ele>
        <time>2013-12-12T12:19:43Z</time>
      </trkpt>
      <trkpt lat="42.90609" lon="-0.71337">
        <ele>1473.838379</ele>
        <time>2013-12-12T12:19:57Z</time>
      </trkpt>
      <trkpt lat="42.9061" lon="-0.7132">
        <ele>1471.435059</ele>
        <time>2013-12-12T12:20:11Z</time>
      </trkpt>
      <trkpt lat="42.90605" lon="-0.71311">
        <ele>1470.473877</ele>
        <time>2013-12-12T12:20:22Z</time>
      </trkpt>
      <trkpt lat="42.90603" lon="-0.7131">
        <ele>1469.031982</ele>
        <time>2013-12-12T12:20:27Z</time>
      </trkpt>
      <trkpt lat="42.906" lon="-0.71303">
        <ele>1467.109131</ele>
        <time>2013-12-12T12:20:35Z</time>
      </trkpt>
      <trkpt lat="42.90595" lon="-0.71292">
        <ele>1465.186523</ele>
        <time>2013-12-12T12:20:48Z</time>
      </trkpt>
      <trkpt lat="42.90592" lon="-0.71286">
        <ele>1463.263916</ele>
        <time>2013-12-12T12:20:55Z</time>
      </trkpt>
      <trkpt lat="42.9059" lon="-0.71283">
        <ele>1461.341309</ele>
        <time>2013-12-12T12:21:00Z</time>
      </trkpt>
      <trkpt lat="42.90584" lon="-0.71275">
        <ele>1458.457275</ele>
        <time>2013-12-12T12:21:13Z</time>
      </trkpt>
      <trkpt lat="42.90578" lon="-0.71266">
        <ele>1455.092773</ele>
        <time>2013-12-12T12:21:25Z</time>
      </trkpt>
      <trkpt lat="42.90572" lon="-0.71251">
        <ele>1451.247314</ele>
        <time>2013-12-12T12:21:37Z</time>
      </trkpt>
      <trkpt lat="42.90572" lon="-0.71249">
        <ele>1450.766602</ele>
        <time>2013-12-12T12:21:39Z</time>
      </trkpt>
      <trkpt lat="42.90563" lon="-0.7124">
        <ele>1448.363281</ele>
        <time>2013-12-12T12:21:52Z</time>
      </trkpt>
      <trkpt lat="42.90557" lon="-0.71227">
        <ele>1445.960205</ele>
        <time>2013-12-12T12:22:05Z</time>
      </trkpt>
      <trkpt lat="42.90556" lon="-0.71221">
        <ele>1444.518066</ele>
        <time>2013-12-12T12:22:11Z</time>
      </trkpt>
      <trkpt lat="42.90551" lon="-0.71212">
        <ele>1441.153564</ele>
        <time>2013-12-12T12:22:22Z</time>
      </trkpt>
      <trkpt lat="42.9055" lon="-0.7121">
        <ele>1440.192383</ele>
        <time>2013-12-12T12:22:24Z</time>
      </trkpt>
      <trkpt lat="42.90546" lon="-0.71199">
        <ele>1437.30835</ele>
        <time>2013-12-12T12:22:35Z</time>
      </trkpt>
      <trkpt lat="42.90542" lon="-0.71197">
        <ele>1435.866211</ele>
        <time>2013-12-12T12:22:43Z</time>
      </trkpt>
      <trkpt lat="42.90534" lon="-0.71192">
        <ele>1432.501709</ele>
        <time>2013-12-12T12:22:56Z</time>
      </trkpt>
      <trkpt lat="42.90532" lon="-0.71192">
        <ele>1430.579102</ele>
        <time>2013-12-12T12:22:59Z</time>
      </trkpt>
      <trkpt lat="42.90525" lon="-0.71191">
        <ele>1429.617676</ele>
        <time>2013-12-12T12:23:17Z</time>
      </trkpt>
      <trkpt lat="42.9052" lon="-0.7119">
        <ele>1427.2146</ele>
        <time>2013-12-12T12:23:34Z</time>
      </trkpt>
      <trkpt lat="42.90514" lon="-0.71186">
        <ele>1423.369385</ele>
        <time>2013-12-12T12:23:46Z</time>
      </trkpt>
      <trkpt lat="42.90506" lon="-0.7118">
        <ele>1420.004639</ele>
        <time>2013-12-12T12:24:01Z</time>
      </trkpt>
      <trkpt lat="42.90504" lon="-0.71177">
        <ele>1418.081787</ele>
        <time>2013-12-12T12:24:06Z</time>
      </trkpt>
      <trkpt lat="42.905" lon="-0.71171">
        <ele>1415.197998</ele>
        <time>2013-12-12T12:24:16Z</time>
      </trkpt>
      <trkpt lat="42.90494" lon="-0.71166">
        <ele>1411.833496</ele>
        <time>2013-12-12T12:24:28Z</time>
      </trkpt>
      <trkpt lat="42.90488" lon="-0.71163">
        <ele>1408.949463</ele>
        <time>2013-12-12T12:24:40Z</time>
      </trkpt>
      <trkpt lat="42.90479" lon="-0.71158">
        <ele>1405.584961</ele>
        <time>2013-12-12T12:24:50Z</time>
      </trkpt>
      <trkpt lat="42.90473" lon="-0.71152">
        <ele>1402.700684</ele>
        <time>2013-12-12T12:25:07Z</time>
      </trkpt>
      <trkpt lat="42.90464" lon="-0.71154">
        <ele>1401.258789</ele>
        <time>2013-12-12T12:25:27Z</time>
      </trkpt>
      <trkpt lat="42.90453" lon="-0.7116">
        <ele>1397.413574</ele>
        <time>2013-12-12T12:25:44Z</time>
      </trkpt>
      <trkpt lat="42.9045" lon="-0.71161">
        <ele>1395.97168</ele>
        <time>2013-12-12T12:25:49Z</time>
      </trkpt>
      <trkpt lat="42.90455" lon="-0.71151">
        <ele>1394.529541</ele>
        <time>2013-12-12T12:25:59Z</time>
      </trkpt>
      <trkpt lat="42.90463" lon="-0.71136">
        <ele>1392.607178</ele>
        <time>2013-12-12T12:26:18Z</time>
      </trkpt>
      <trkpt lat="42.90465" lon="-0.71133">
        <ele>1392.607178</ele>
        <time>2013-12-12T12:26:24Z</time>
      </trkpt>
      <trkpt lat="42.90459" lon="-0.71114">
        <ele>1389.242432</ele>
        <time>2013-12-12T12:26:42Z</time>
      </trkpt>
      <trkpt lat="42.90458" lon="-0.7111">
        <ele>1388.28125</ele>
        <time>2013-12-12T12:26:45Z</time>
      </trkpt>
      <trkpt lat="42.90455" lon="-0.71101">
        <ele>1386.838867</ele>
        <time>2013-12-12T12:26:52Z</time>
      </trkpt>
      <trkpt lat="42.90455" lon="-0.71095">
        <ele>1385.877686</ele>
        <time>2013-12-12T12:26:56Z</time>
      </trkpt>
      <trkpt lat="42.90455" lon="-0.71088">
        <ele>1385.396973</ele>
        <time>2013-12-12T12:27:14Z</time>
      </trkpt>
      <trkpt lat="42.90453" lon="-0.7109">
        <ele>1383.955078</ele>
        <time>2013-12-12T12:27:24Z</time>
      </trkpt>
      <trkpt lat="42.90452" lon="-0.71092">
        <ele>1384.435791</ele>
        <time>2013-12-12T12:27:41Z</time>
      </trkpt>
      <trkpt lat="42.90447" lon="-0.71091">
        <ele>1384.435791</ele>
        <time>2013-12-12T12:28:12Z</time>
      </trkpt>
      <trkpt lat="42.90453" lon="-0.71091">
        <ele>1385.396973</ele>
        <time>2013-12-12T12:28:44Z</time>
      </trkpt>
      <trkpt lat="42.90454" lon="-0.71086">
        <ele>1384.916504</ele>
        <time>2013-12-12T12:28:57Z</time>
      </trkpt>
      <trkpt lat="42.90455" lon="-0.71064">
        <ele>1383.474365</ele>
        <time>2013-12-12T12:29:10Z</time>
      </trkpt>
      <trkpt lat="42.90452" lon="-0.71058">
        <ele>1382.993652</ele>
        <time>2013-12-12T12:29:15Z</time>
      </trkpt>
      <trkpt lat="42.90449" lon="-0.7103">
        <ele>1380.590576</ele>
        <time>2013-12-12T12:29:31Z</time>
      </trkpt>
      <trkpt lat="42.90449" lon="-0.71">
        <ele>1377.226074</ele>
        <time>2013-12-12T12:29:50Z</time>
      </trkpt>
      <trkpt lat="42.9044" lon="-0.70976">
        <ele>1375.303223</ele>
        <time>2013-12-12T12:30:08Z</time>
      </trkpt>
      <trkpt lat="42.9043" lon="-0.70957">
        <ele>1373.380859</ele>
        <time>2013-12-12T12:30:28Z</time>
      </trkpt>
      <trkpt lat="42.90433" lon="-0.70952">
        <ele>1372.419434</ele>
        <time>2013-12-12T12:30:55Z</time>
      </trkpt>
      <trkpt lat="42.90441" lon="-0.70945">
        <ele>1372.419434</ele>
        <time>2013-12-12T12:31:11Z</time>
      </trkpt>
      <trkpt lat="42.90434" lon="-0.7095">
        <ele>1372.419434</ele>
        <time>2013-12-12T12:31:27Z</time>
      </trkpt>
      <trkpt lat="42.90425" lon="-0.70951">
        <ele>1372.900146</ele>
        <time>2013-12-12T12:31:38Z</time>
      </trkpt>
      <trkpt lat="42.90421" lon="-0.70939">
        <ele>1372.419434</ele>
        <time>2013-12-12T12:32:04Z</time>
      </trkpt>
      <trkpt lat="42.90418" lon="-0.70913">
        <ele>1371.457764</ele>
        <time>2013-12-12T12:32:23Z</time>
      </trkpt>
      <trkpt lat="42.90416" lon="-0.70888">
        <ele>1369.5354</ele>
        <time>2013-12-12T12:32:40Z</time>
      </trkpt>
      <trkpt lat="42.90413" lon="-0.70856">
        <ele>1367.13208</ele>
        <time>2013-12-12T12:33:02Z</time>
      </trkpt>
      <trkpt lat="42.9041" lon="-0.70825">
        <ele>1365.690186</ele>
        <time>2013-12-12T12:33:24Z</time>
      </trkpt>
      <trkpt lat="42.90411" lon="-0.70801">
        <ele>1364.248047</ele>
        <time>2013-12-12T12:33:41Z</time>
      </trkpt>
      <trkpt lat="42.90413" lon="-0.70792">
        <ele>1364.72876</ele>
        <time>2013-12-12T12:33:47Z</time>
      </trkpt>
      <trkpt lat="42.9042" lon="-0.70762">
        <ele>1362.806152</ele>
        <time>2013-12-12T12:34:08Z</time>
      </trkpt>
      <trkpt lat="42.90424" lon="-0.70751">
        <ele>1363.767334</ele>
        <time>2013-12-12T12:34:17Z</time>
      </trkpt>
      <trkpt lat="42.90427" lon="-0.70728">
        <ele>1364.72876</ele>
        <time>2013-12-12T12:34:35Z</time>
      </trkpt>
      <trkpt lat="42.90431" lon="-0.7071">
        <ele>1367.612549</ele>
        <time>2013-12-12T12:34:50Z</time>
      </trkpt>
      <trkpt lat="42.90435" lon="-0.70686">
        <ele>1369.5354</ele>
        <time>2013-12-12T12:35:10Z</time>
      </trkpt>
      <trkpt lat="42.90436" lon="-0.70661">
        <ele>1370.496582</ele>
        <time>2013-12-12T12:35:30Z</time>
      </trkpt>
      <trkpt lat="42.90434" lon="-0.70643">
        <ele>1370.496582</ele>
        <time>2013-12-12T12:35:45Z</time>
      </trkpt>
      <trkpt lat="42.90435" lon="-0.70617">
        <ele>1371.938477</ele>
        <time>2013-12-12T12:36:04Z</time>
      </trkpt>
      <trkpt lat="42.90435" lon="-0.70589">
        <ele>1372.419434</ele>
        <time>2013-12-12T12:36:25Z</time>
      </trkpt>
      <trkpt lat="42.90435" lon="-0.70563">
        <ele>1370.977295</ele>
        <time>2013-12-12T12:36:44Z</time>
      </trkpt>
      <trkpt lat="42.90436" lon="-0.70544">
        <ele>1367.612549</ele>
        <time>2013-12-12T12:36:58Z</time>
      </trkpt>
      <trkpt lat="42.90437" lon="-0.70512">
        <ele>1366.170654</ele>
        <time>2013-12-12T12:37:20Z</time>
      </trkpt>
      <trkpt lat="42.90437" lon="-0.70501">
        <ele>1364.248047</ele>
        <time>2013-12-12T12:37:28Z</time>
      </trkpt>
      <trkpt lat="42.90439" lon="-0.70481">
        <ele>1365.209473</ele>
        <time>2013-12-12T12:37:42Z</time>
      </trkpt>
      <trkpt lat="42.90441" lon="-0.70473">
        <ele>1363.767334</ele>
        <time>2013-12-12T12:37:49Z</time>
      </trkpt>
      <trkpt lat="42.9044" lon="-0.70454">
        <ele>1361.844971</ele>
        <time>2013-12-12T12:38:02Z</time>
      </trkpt>
      <trkpt lat="42.9044" lon="-0.70452">
        <ele>1361.844971</ele>
        <time>2013-12-12T12:38:03Z</time>
      </trkpt>
      <trkpt lat="42.90438" lon="-0.70443">
        <ele>1361.364258</ele>
        <time>2013-12-12T12:38:10Z</time>
      </trkpt>
      <trkpt lat="42.90439" lon="-0.7041">
        <ele>1358.480225</ele>
        <time>2013-12-12T12:38:31Z</time>
      </trkpt>
      <trkpt lat="42.90442" lon="-0.70394">
        <ele>1356.557617</ele>
        <time>2013-12-12T12:38:43Z</time>
      </trkpt>
      <trkpt lat="42.90453" lon="-0.70376">
        <ele>1355.115479</ele>
        <time>2013-12-12T12:38:58Z</time>
      </trkpt>
      <trkpt lat="42.90459" lon="-0.7036">
        <ele>1351.750977</ele>
        <time>2013-12-12T12:39:10Z</time>
      </trkpt>
      <trkpt lat="42.90459" lon="-0.70358">
        <ele>1351.270264</ele>
        <time>2013-12-12T12:39:11Z</time>
      </trkpt>
      <trkpt lat="42.90453" lon="-0.70337">
        <ele>1350.309082</ele>
        <time>2013-12-12T12:39:27Z</time>
      </trkpt>
      <trkpt lat="42.90449" lon="-0.7033">
        <ele>1347.905762</ele>
        <time>2013-12-12T12:39:35Z</time>
      </trkpt>
      <trkpt lat="42.90447" lon="-0.7031">
        <ele>1346.944336</ele>
        <time>2013-12-12T12:39:47Z</time>
      </trkpt>
      <trkpt lat="42.90447" lon="-0.70301">
        <ele>1345.502441</ele>
        <time>2013-12-12T12:39:52Z</time>
      </trkpt>
      <trkpt lat="42.90444" lon="-0.70287">
        <ele>1343.579834</ele>
        <time>2013-12-12T12:40:02Z</time>
      </trkpt>
      <trkpt lat="42.90443" lon="-0.70282">
        <ele>1343.579834</ele>
        <time>2013-12-12T12:40:05Z</time>
      </trkpt>
      <trkpt lat="42.90438" lon="-0.70271">
        <ele>1340.215332</ele>
        <time>2013-12-12T12:40:15Z</time>
      </trkpt>
      <trkpt lat="42.90435" lon="-0.7026">
        <ele>1336.850342</ele>
        <time>2013-12-12T12:40:26Z</time>
      </trkpt>
      <trkpt lat="42.90437" lon="-0.70249">
        <ele>1335.408447</ele>
        <time>2013-12-12T12:40:35Z</time>
      </trkpt>
      <trkpt lat="42.90441" lon="-0.70232">
        <ele>1331.563232</ele>
        <time>2013-12-12T12:40:48Z</time>
      </trkpt>
      <trkpt lat="42.90442" lon="-0.7023">
        <ele>1331.563232</ele>
        <time>2013-12-12T12:40:49Z</time>
      </trkpt>
      <trkpt lat="42.90444" lon="-0.70205">
        <ele>1328.19873</ele>
        <time>2013-12-12T12:41:08Z</time>
      </trkpt>
      <trkpt lat="42.90444" lon="-0.70204">
        <ele>1328.19873</ele>
        <time>2013-12-12T12:41:09Z</time>
      </trkpt>
      <trkpt lat="42.90446" lon="-0.70193">
        <ele>1324.834229</ele>
        <time>2013-12-12T12:41:18Z</time>
      </trkpt>
      <trkpt lat="42.90446" lon="-0.70191">
        <ele>1324.834229</ele>
        <time>2013-12-12T12:41:19Z</time>
      </trkpt>
      <trkpt lat="42.90445" lon="-0.70178">
        <ele>1322.430664</ele>
        <time>2013-12-12T12:41:28Z</time>
      </trkpt>
      <trkpt lat="42.90439" lon="-0.7016">
        <ele>1319.066162</ele>
        <time>2013-12-12T12:41:40Z</time>
      </trkpt>
      <trkpt lat="42.90437" lon="-0.70154">
        <ele>1318.585449</ele>
        <time>2013-12-12T12:41:45Z</time>
      </trkpt>
      <trkpt lat="42.9044" lon="-0.70148">
        <ele>1317.143555</ele>
        <time>2013-12-12T12:41:51Z</time>
      </trkpt>
      <trkpt lat="42.90444" lon="-0.70125">
        <ele>1314.259521</ele>
        <time>2013-12-12T12:42:03Z</time>
      </trkpt>
      <trkpt lat="42.90446" lon="-0.70109">
        <ele>1312.336914</ele>
        <time>2013-12-12T12:42:13Z</time>
      </trkpt>
      <trkpt lat="42.90447" lon="-0.70103">
        <ele>1310.89502</ele>
        <time>2013-12-12T12:42:17Z</time>
      </trkpt>
      <trkpt lat="42.90446" lon="-0.70085">
        <ele>1308.01123</ele>
        <time>2013-12-12T12:42:29Z</time>
      </trkpt>
      <trkpt lat="42.90443" lon="-0.70073">
        <ele>1306.088135</ele>
        <time>2013-12-12T12:42:40Z</time>
      </trkpt>
      <trkpt lat="42.90442" lon="-0.70056">
        <ele>1303.204346</ele>
        <time>2013-12-12T12:42:51Z</time>
      </trkpt>
      <trkpt lat="42.90442" lon="-0.70049">
        <ele>1302.24292</ele>
        <time>2013-12-12T12:42:55Z</time>
      </trkpt>
      <trkpt lat="42.90447" lon="-0.70026">
        <ele>1300.320557</ele>
        <time>2013-12-12T12:43:09Z</time>
      </trkpt>
      <trkpt lat="42.90452" lon="-0.70003">
        <ele>1299.359131</ele>
        <time>2013-12-12T12:43:25Z</time>
      </trkpt>
      <trkpt lat="42.90454" lon="-0.69994">
        <ele>1298.397705</ele>
        <time>2013-12-12T12:43:32Z</time>
      </trkpt>
      <trkpt lat="42.90462" lon="-0.69969">
        <ele>1297.436523</ele>
        <time>2013-12-12T12:43:48Z</time>
      </trkpt>
      <trkpt lat="42.90467" lon="-0.69945">
        <ele>1297.436523</ele>
        <time>2013-12-12T12:44:05Z</time>
      </trkpt>
      <trkpt lat="42.90468" lon="-0.69932">
        <ele>1294.072021</ele>
        <time>2013-12-12T12:44:15Z</time>
      </trkpt>
      <trkpt lat="42.9047" lon="-0.69925">
        <ele>1294.072021</ele>
        <time>2013-12-12T12:44:20Z</time>
      </trkpt>
      <trkpt lat="42.90474" lon="-0.69914">
        <ele>1291.187744</ele>
        <time>2013-12-12T12:44:31Z</time>
      </trkpt>
      <trkpt lat="42.90472" lon="-0.69908">
        <ele>1290.226563</ele>
        <time>2013-12-12T12:44:37Z</time>
      </trkpt>
      <trkpt lat="42.90472" lon="-0.699">
        <ele>1288.784668</ele>
        <time>2013-12-12T12:44:44Z</time>
      </trkpt>
      <trkpt lat="42.90471" lon="-0.69899">
        <ele>1288.784668</ele>
        <time>2013-12-12T12:44:45Z</time>
      </trkpt>
      <trkpt lat="42.90466" lon="-0.69888">
        <ele>1284.939453</ele>
        <time>2013-12-12T12:44:55Z</time>
      </trkpt>
      <trkpt lat="42.90461" lon="-0.69868">
        <ele>1281.574707</ele>
        <time>2013-12-12T12:45:10Z</time>
      </trkpt>
      <trkpt lat="42.9046" lon="-0.69866">
        <ele>1280.613525</ele>
        <time>2013-12-12T12:45:12Z</time>
      </trkpt>
      <trkpt lat="42.90459" lon="-0.69846">
        <ele>1277.729492</ele>
        <time>2013-12-12T12:45:27Z</time>
      </trkpt>
      <trkpt lat="42.90464" lon="-0.69833">
        <ele>1274.364746</ele>
        <time>2013-12-12T12:45:38Z</time>
      </trkpt>
      <trkpt lat="42.90465" lon="-0.69832">
        <ele>1273.884033</ele>
        <time>2013-12-12T12:45:39Z</time>
      </trkpt>
      <trkpt lat="42.90466" lon="-0.6983">
        <ele>1272.442139</ele>
        <time>2013-12-12T12:45:42Z</time>
      </trkpt>
      <trkpt lat="42.90466" lon="-0.69828">
        <ele>1272.442139</ele>
        <time>2013-12-12T12:45:44Z</time>
      </trkpt>
      <trkpt lat="42.90462" lon="-0.69806">
        <ele>1268.596924</ele>
        <time>2013-12-12T12:45:59Z</time>
      </trkpt>
      <trkpt lat="42.90458" lon="-0.69797">
        <ele>1267.635498</ele>
        <time>2013-12-12T12:46:06Z</time>
      </trkpt>
      <trkpt lat="42.90447" lon="-0.69779">
        <ele>1263.790283</ele>
        <time>2013-12-12T12:46:22Z</time>
      </trkpt>
      <trkpt lat="42.90435" lon="-0.69764">
        <ele>1260.425781</ele>
        <time>2013-12-12T12:46:37Z</time>
      </trkpt>
      <trkpt lat="42.90425" lon="-0.69744">
        <ele>1258.50293</ele>
        <time>2013-12-12T12:46:54Z</time>
      </trkpt>
      <trkpt lat="42.90422" lon="-0.69736">
        <ele>1257.061035</ele>
        <time>2013-12-12T12:47:00Z</time>
      </trkpt>
      <trkpt lat="42.90423" lon="-0.69732">
        <ele>1255.619141</ele>
        <time>2013-12-12T12:47:03Z</time>
      </trkpt>
      <trkpt lat="42.90426" lon="-0.69719">
        <ele>1253.21582</ele>
        <time>2013-12-12T12:47:13Z</time>
      </trkpt>
      <trkpt lat="42.9043" lon="-0.69699">
        <ele>1250.332031</ele>
        <time>2013-12-12T12:47:27Z</time>
      </trkpt>
      <trkpt lat="42.90428" lon="-0.69687">
        <ele>1248.889893</ele>
        <time>2013-12-12T12:47:36Z</time>
      </trkpt>
      <trkpt lat="42.90428" lon="-0.69681">
        <ele>1247.447998</ele>
        <time>2013-12-12T12:47:40Z</time>
      </trkpt>
      <trkpt lat="42.90419" lon="-0.69661">
        <ele>1244.083496</ele>
        <time>2013-12-12T12:47:55Z</time>
      </trkpt>
      <trkpt lat="42.90419" lon="-0.69633">
        <ele>1241.199219</ele>
        <time>2013-12-12T12:48:13Z</time>
      </trkpt>
      <trkpt lat="42.90416" lon="-0.69617">
        <ele>1238.31543</ele>
        <time>2013-12-12T12:48:24Z</time>
      </trkpt>
      <trkpt lat="42.90417" lon="-0.69599">
        <ele>1234.950928</ele>
        <time>2013-12-12T12:48:36Z</time>
      </trkpt>
      <trkpt lat="42.90419" lon="-0.69579">
        <ele>1233.508789</ele>
        <time>2013-12-12T12:48:49Z</time>
      </trkpt>
      <trkpt lat="42.90419" lon="-0.69565">
        <ele>1230.144287</ele>
        <time>2013-12-12T12:48:58Z</time>
      </trkpt>
      <trkpt lat="42.90417" lon="-0.69544">
        <ele>1227.260254</ele>
        <time>2013-12-12T12:49:11Z</time>
      </trkpt>
      <trkpt lat="42.90413" lon="-0.6951">
        <ele>1224.376221</ele>
        <time>2013-12-12T12:49:32Z</time>
      </trkpt>
      <trkpt lat="42.90418" lon="-0.69496">
        <ele>1222.934326</ele>
        <time>2013-12-12T12:49:41Z</time>
      </trkpt>
      <trkpt lat="42.90421" lon="-0.69471">
        <ele>1220.050293</ele>
        <time>2013-12-12T12:49:57Z</time>
      </trkpt>
      <trkpt lat="42.9042" lon="-0.69452">
        <ele>1216.685791</ele>
        <time>2013-12-12T12:50:09Z</time>
      </trkpt>
      <trkpt lat="42.90417" lon="-0.69436">
        <ele>1214.282471</ele>
        <time>2013-12-12T12:50:24Z</time>
      </trkpt>
      <trkpt lat="42.90416" lon="-0.69415">
        <ele>1212.359863</ele>
        <time>2013-12-12T12:50:37Z</time>
      </trkpt>
      <trkpt lat="42.90426" lon="-0.69391">
        <ele>1210.437012</ele>
        <time>2013-12-12T12:50:55Z</time>
      </trkpt>
      <trkpt lat="42.9044" lon="-0.69367">
        <ele>1207.553223</ele>
        <time>2013-12-12T12:51:15Z</time>
      </trkpt>
      <trkpt lat="42.90452" lon="-0.69351">
        <ele>1204.669189</ele>
        <time>2013-12-12T12:51:29Z</time>
      </trkpt>
      <trkpt lat="42.90454" lon="-0.69329">
        <ele>1201.7854</ele>
        <time>2013-12-12T12:51:44Z</time>
      </trkpt>
      <trkpt lat="42.90455" lon="-0.69326">
        <ele>1202.265869</ele>
        <time>2013-12-12T12:51:46Z</time>
      </trkpt>
      <trkpt lat="42.90465" lon="-0.69305">
        <ele>1198.901367</ele>
        <time>2013-12-12T12:52:02Z</time>
      </trkpt>
      <trkpt lat="42.90475" lon="-0.69291">
        <ele>1196.017578</ele>
        <time>2013-12-12T12:52:17Z</time>
      </trkpt>
      <trkpt lat="42.90488" lon="-0.69275">
        <ele>1193.133301</ele>
        <time>2013-12-12T12:52:30Z</time>
      </trkpt>
      <trkpt lat="42.90489" lon="-0.69272">
        <ele>1193.133301</ele>
        <time>2013-12-12T12:52:32Z</time>
      </trkpt>
      <trkpt lat="42.90492" lon="-0.69267">
        <ele>1193.133301</ele>
        <time>2013-12-12T12:52:35Z</time>
      </trkpt>
      <trkpt lat="42.90503" lon="-0.69246">
        <ele>1190.72998</ele>
        <time>2013-12-12T12:52:51Z</time>
      </trkpt>
      <trkpt lat="42.90513" lon="-0.69228">
        <ele>1187.365479</ele>
        <time>2013-12-12T12:53:05Z</time>
      </trkpt>
      <trkpt lat="42.90524" lon="-0.69203">
        <ele>1185.442871</ele>
        <time>2013-12-12T12:53:21Z</time>
      </trkpt>
      <trkpt lat="42.90533" lon="-0.69178">
        <ele>1183.039551</ele>
        <time>2013-12-12T12:53:37Z</time>
      </trkpt>
      <trkpt lat="42.90538" lon="-0.6917">
        <ele>1182.078369</ele>
        <time>2013-12-12T12:53:43Z</time>
      </trkpt>
      <trkpt lat="42.90539" lon="-0.69144">
        <ele>1180.155762</ele>
        <time>2013-12-12T12:54:00Z</time>
      </trkpt>
      <trkpt lat="42.90542" lon="-0.69139">
        <ele>1179.674805</ele>
        <time>2013-12-12T12:54:16Z</time>
      </trkpt>
      <trkpt lat="42.90538" lon="-0.69139">
        <ele>1178.713623</ele>
        <time>2013-12-12T12:54:54Z</time>
      </trkpt>
      <trkpt lat="42.90537" lon="-0.69148">
        <ele>1178.713623</ele>
        <time>2013-12-12T12:55:02Z</time>
      </trkpt>
      <trkpt lat="42.90541" lon="-0.69159">
        <ele>1181.597656</ele>
        <time>2013-12-12T12:55:15Z</time>
      </trkpt>
      <trkpt lat="42.90546" lon="-0.69151">
        <ele>1180.636475</ele>
        <time>2013-12-12T12:55:21Z</time>
      </trkpt>
      <trkpt lat="42.9055" lon="-0.69145">
        <ele>1180.155762</ele>
        <time>2013-12-12T12:55:25Z</time>
      </trkpt>
      <trkpt lat="42.90557" lon="-0.69137">
        <ele>1178.713623</ele>
        <time>2013-12-12T12:55:31Z</time>
      </trkpt>
      <trkpt lat="42.90562" lon="-0.69108">
        <ele>1178.713623</ele>
        <time>2013-12-12T12:55:47Z</time>
      </trkpt>
      <trkpt lat="42.90563" lon="-0.69089">
        <ele>1179.674805</ele>
        <time>2013-12-12T12:56:04Z</time>
      </trkpt>
      <trkpt lat="42.90565" lon="-0.69087">
        <ele>1180.155762</ele>
        <time>2013-12-12T12:56:16Z</time>
      </trkpt>
      <trkpt lat="42.9058" lon="-0.69056">
        <ele>1181.117188</ele>
        <time>2013-12-12T12:56:38Z</time>
      </trkpt>
      <trkpt lat="42.90586" lon="-0.69044">
        <ele>1181.117188</ele>
        <time>2013-12-12T12:56:51Z</time>
      </trkpt>
      <trkpt lat="42.90593" lon="-0.69019">
        <ele>1179.194092</ele>
        <time>2013-12-12T12:57:09Z</time>
      </trkpt>
      <trkpt lat="42.906" lon="-0.69003">
        <ele>1176.310303</ele>
        <time>2013-12-12T12:57:21Z</time>
      </trkpt>
      <trkpt lat="42.90604" lon="-0.68996">
        <ele>1175.348877</ele>
        <time>2013-12-12T12:57:26Z</time>
      </trkpt>
      <trkpt lat="42.90622" lon="-0.68975">
        <ele>1174.868408</ele>
        <time>2013-12-12T12:57:44Z</time>
      </trkpt>
      <trkpt lat="42.90642" lon="-0.68957">
        <ele>1173.906982</ele>
        <time>2013-12-12T12:58:03Z</time>
      </trkpt>
      <trkpt lat="42.90647" lon="-0.68951">
        <ele>1174.387695</ele>
        <time>2013-12-12T12:58:09Z</time>
      </trkpt>
      <trkpt lat="42.90653" lon="-0.68929">
        <ele>1175.348877</ele>
        <time>2013-12-12T12:58:26Z</time>
      </trkpt>
      <trkpt lat="42.90652" lon="-0.68899">
        <ele>1173.426514</ele>
        <time>2013-12-12T12:58:46Z</time>
      </trkpt>
      <trkpt lat="42.9065" lon="-0.6888">
        <ele>1171.984375</ele>
        <time>2013-12-12T12:58:58Z</time>
      </trkpt>
      <trkpt lat="42.90649" lon="-0.6888">
        <ele>1171.503662</ele>
        <time>2013-12-12T12:59:09Z</time>
      </trkpt>
      <trkpt lat="42.90649" lon="-0.68881">
        <ele>1172.465088</ele>
        <time>2013-12-12T12:59:44Z</time>
      </trkpt>
      <trkpt lat="42.90647" lon="-0.6887">
        <ele>1169.581299</ele>
        <time>2013-12-12T13:00:04Z</time>
      </trkpt>
      <trkpt lat="42.90643" lon="-0.68851">
        <ele>1166.697266</ele>
        <time>2013-12-12T13:00:19Z</time>
      </trkpt>
      <trkpt lat="42.9064" lon="-0.68829">
        <ele>1163.812988</ele>
        <time>2013-12-12T13:00:34Z</time>
      </trkpt>
      <trkpt lat="42.90628" lon="-0.68801">
        <ele>1161.890625</ele>
        <time>2013-12-12T13:00:53Z</time>
      </trkpt>
      <trkpt lat="42.90622" lon="-0.6877">
        <ele>1159.006592</ele>
        <time>2013-12-12T13:01:12Z</time>
      </trkpt>
      <trkpt lat="42.90623" lon="-0.6874">
        <ele>1158.04541</ele>
        <time>2013-12-12T13:01:30Z</time>
      </trkpt>
      <trkpt lat="42.9063" lon="-0.68707">
        <ele>1155.64209</ele>
        <time>2013-12-12T13:01:50Z</time>
      </trkpt>
      <trkpt lat="42.90637" lon="-0.68694">
        <ele>1153.23877</ele>
        <time>2013-12-12T13:01:59Z</time>
      </trkpt>
      <trkpt lat="42.90651" lon="-0.68684">
        <ele>1150.35498</ele>
        <time>2013-12-12T13:02:13Z</time>
      </trkpt>
      <trkpt lat="42.90658" lon="-0.68672">
        <ele>1147.470703</ele>
        <time>2013-12-12T13:02:22Z</time>
      </trkpt>
      <trkpt lat="42.90659" lon="-0.68668">
        <ele>1146.028809</ele>
        <time>2013-12-12T13:02:25Z</time>
      </trkpt>
      <trkpt lat="42.90663" lon="-0.68658">
        <ele>1143.625488</ele>
        <time>2013-12-12T13:02:34Z</time>
      </trkpt>
      <trkpt lat="42.90667" lon="-0.68655">
        <ele>1142.183594</ele>
        <time>2013-12-12T13:02:39Z</time>
      </trkpt>
      <trkpt lat="42.90679" lon="-0.68647">
        <ele>1141.222168</ele>
        <time>2013-12-12T13:02:49Z</time>
      </trkpt>
      <trkpt lat="42.90684" lon="-0.68633">
        <ele>1140.741455</ele>
        <time>2013-12-12T13:02:57Z</time>
      </trkpt>
      <trkpt lat="42.90707" lon="-0.68609">
        <ele>1139.299561</ele>
        <time>2013-12-12T13:03:15Z</time>
      </trkpt>
      <trkpt lat="42.9071" lon="-0.68606">
        <ele>1138.819092</ele>
        <time>2013-12-12T13:03:18Z</time>
      </trkpt>
      <trkpt lat="42.9071" lon="-0.68603">
        <ele>1137.857666</ele>
        <time>2013-12-12T13:03:20Z</time>
      </trkpt>
      <trkpt lat="42.90713" lon="-0.68597">
        <ele>1136.415771</ele>
        <time>2013-12-12T13:03:24Z</time>
      </trkpt>
      <trkpt lat="42.90723" lon="-0.6858">
        <ele>1133.531738</ele>
        <time>2013-12-12T13:03:38Z</time>
      </trkpt>
      <trkpt lat="42.90742" lon="-0.68553">
        <ele>1131.608887</ele>
        <time>2013-12-12T13:03:57Z</time>
      </trkpt>
      <trkpt lat="42.90756" lon="-0.68535">
        <ele>1128.244385</ele>
        <time>2013-12-12T13:04:10Z</time>
      </trkpt>
      <trkpt lat="42.90773" lon="-0.68507">
        <ele>1127.763672</ele>
        <time>2013-12-12T13:04:29Z</time>
      </trkpt>
      <trkpt lat="42.90778" lon="-0.68481">
        <ele>1125.841064</ele>
        <time>2013-12-12T13:04:45Z</time>
      </trkpt>
      <trkpt lat="42.90783" lon="-0.6845">
        <ele>1124.39917</ele>
        <time>2013-12-12T13:05:03Z</time>
      </trkpt>
      <trkpt lat="42.90792" lon="-0.68423">
        <ele>1121.515137</ele>
        <time>2013-12-12T13:05:22Z</time>
      </trkpt>
      <trkpt lat="42.90793" lon="-0.68416">
        <ele>1120.073242</ele>
        <time>2013-12-12T13:05:25Z</time>
      </trkpt>
      <trkpt lat="42.90795" lon="-0.68409">
        <ele>1119.592773</ele>
        <time>2013-12-12T13:05:29Z</time>
      </trkpt>
      <trkpt lat="42.90798" lon="-0.68378">
        <ele>1117.189453</ele>
        <time>2013-12-12T13:05:50Z</time>
      </trkpt>
      <trkpt lat="42.90799" lon="-0.68358">
        <ele>1113.824463</ele>
        <time>2013-12-12T13:06:04Z</time>
      </trkpt>
      <trkpt lat="42.90815" lon="-0.6834">
        <ele>1112.382568</ele>
        <time>2013-12-12T13:06:20Z</time>
      </trkpt>
      <trkpt lat="42.90822" lon="-0.68321">
        <ele>1109.979248</ele>
        <time>2013-12-12T13:06:34Z</time>
      </trkpt>
      <trkpt lat="42.90832" lon="-0.68309">
        <ele>1108.056885</ele>
        <time>2013-12-12T13:06:46Z</time>
      </trkpt>
      <trkpt lat="42.90842" lon="-0.68293">
        <ele>1105.172852</ele>
        <time>2013-12-12T13:06:57Z</time>
      </trkpt>
      <trkpt lat="42.90843" lon="-0.68278">
        <ele>1103.730957</ele>
        <time>2013-12-12T13:07:07Z</time>
      </trkpt>
      <trkpt lat="42.90847" lon="-0.68246">
        <ele>1101.327637</ele>
        <time>2013-12-12T13:07:27Z</time>
      </trkpt>
      <trkpt lat="42.90846" lon="-0.68239">
        <ele>1100.366455</ele>
        <time>2013-12-12T13:07:32Z</time>
      </trkpt>
      <trkpt lat="42.9085" lon="-0.68206">
        <ele>1098.443359</ele>
        <time>2013-12-12T13:07:50Z</time>
      </trkpt>
      <trkpt lat="42.90848" lon="-0.68181">
        <ele>1095.55957</ele>
        <time>2013-12-12T13:08:06Z</time>
      </trkpt>
      <trkpt lat="42.90846" lon="-0.68163">
        <ele>1091.714355</ele>
        <time>2013-12-12T13:08:18Z</time>
      </trkpt>
      <trkpt lat="42.90857" lon="-0.68144">
        <ele>1091.233643</ele>
        <time>2013-12-12T13:08:31Z</time>
      </trkpt>
      <trkpt lat="42.90874" lon="-0.68133">
        <ele>1089.311035</ele>
        <time>2013-12-12T13:08:48Z</time>
      </trkpt>
      <trkpt lat="42.90885" lon="-0.6812">
        <ele>1087.388428</ele>
        <time>2013-12-12T13:09:03Z</time>
      </trkpt>
      <trkpt lat="42.90902" lon="-0.68103">
        <ele>1084.504639</ele>
        <time>2013-12-12T13:09:19Z</time>
      </trkpt>
      <trkpt lat="42.90913" lon="-0.68091">
        <ele>1084.023926</ele>
        <time>2013-12-12T13:09:32Z</time>
      </trkpt>
      <trkpt lat="42.90925" lon="-0.6808">
        <ele>1083.542969</ele>
        <time>2013-12-12T13:09:40Z</time>
      </trkpt>
      <trkpt lat="42.90937" lon="-0.6806">
        <ele>1080.65918</ele>
        <time>2013-12-12T13:09:53Z</time>
      </trkpt>
      <trkpt lat="42.90939" lon="-0.6803">
        <ele>1080.178467</ele>
        <time>2013-12-12T13:10:10Z</time>
      </trkpt>
      <trkpt lat="42.9095" lon="-0.68003">
        <ele>1076.813965</ele>
        <time>2013-12-12T13:10:28Z</time>
      </trkpt>
      <trkpt lat="42.90959" lon="-0.67975">
        <ele>1073.929932</ele>
        <time>2013-12-12T13:10:45Z</time>
      </trkpt>
      <trkpt lat="42.90963" lon="-0.67944">
        <ele>1071.526611</ele>
        <time>2013-12-12T13:11:04Z</time>
      </trkpt>
      <trkpt lat="42.90969" lon="-0.67921">
        <ele>1068.162109</ele>
        <time>2013-12-12T13:11:18Z</time>
      </trkpt>
      <trkpt lat="42.9096" lon="-0.6789">
        <ele>1066.719971</ele>
        <time>2013-12-12T13:11:36Z</time>
      </trkpt>
      <trkpt lat="42.90944" lon="-0.67863">
        <ele>1064.797363</ele>
        <time>2013-12-12T13:11:54Z</time>
      </trkpt>
      <trkpt lat="42.90934" lon="-0.67841">
        <ele>1061.913574</ele>
        <time>2013-12-12T13:12:08Z</time>
      </trkpt>
      <trkpt lat="42.90933" lon="-0.67839">
        <ele>1061.432861</ele>
        <time>2013-12-12T13:12:09Z</time>
      </trkpt>
      <trkpt lat="42.90932" lon="-0.67808">
        <ele>1059.510254</ele>
        <time>2013-12-12T13:12:28Z</time>
      </trkpt>
      <trkpt lat="42.90935" lon="-0.67779">
        <ele>1058.548828</ele>
        <time>2013-12-12T13:12:46Z</time>
      </trkpt>
      <trkpt lat="42.90934" lon="-0.67751">
        <ele>1056.145508</ele>
        <time>2013-12-12T13:13:03Z</time>
      </trkpt>
      <trkpt lat="42.90933" lon="-0.67724">
        <ele>1055.184326</ele>
        <time>2013-12-12T13:13:17Z</time>
      </trkpt>
      <trkpt lat="42.90927" lon="-0.67689">
        <ele>1053.742432</ele>
        <time>2013-12-12T13:13:36Z</time>
      </trkpt>
      <trkpt lat="42.90916" lon="-0.67664">
        <ele>1050.858154</ele>
        <time>2013-12-12T13:13:51Z</time>
      </trkpt>
      <trkpt lat="42.90903" lon="-0.67638">
        <ele>1047.493652</ele>
        <time>2013-12-12T13:14:07Z</time>
      </trkpt>
      <trkpt lat="42.90902" lon="-0.67629">
        <ele>1047.012939</ele>
        <time>2013-12-12T13:14:12Z</time>
      </trkpt>
      <trkpt lat="42.90908" lon="-0.67598">
        <ele>1046.051758</ele>
        <time>2013-12-12T13:14:30Z</time>
      </trkpt>
      <trkpt lat="42.90914" lon="-0.67583">
        <ele>1044.609619</ele>
        <time>2013-12-12T13:14:39Z</time>
      </trkpt>
      <trkpt lat="42.9092" lon="-0.67549">
        <ele>1042.206543</ele>
        <time>2013-12-12T13:14:58Z</time>
      </trkpt>
      <trkpt lat="42.90922" lon="-0.67532">
        <ele>1040.283936</ele>
        <time>2013-12-12T13:15:13Z</time>
      </trkpt>
      <trkpt lat="42.9093" lon="-0.67504">
        <ele>1036.438721</ele>
        <time>2013-12-12T13:15:30Z</time>
      </trkpt>
      <trkpt lat="42.90936" lon="-0.67475">
        <ele>1033.07373</ele>
        <time>2013-12-12T13:15:46Z</time>
      </trkpt>
      <trkpt lat="42.90932" lon="-0.67471">
        <ele>1032.593262</ele>
        <time>2013-12-12T13:16:01Z</time>
      </trkpt>
      <trkpt lat="42.90949" lon="-0.67445">
        <ele>1032.593262</ele>
        <time>2013-12-12T13:16:19Z</time>
      </trkpt>
      <trkpt lat="42.9096" lon="-0.6742">
        <ele>1032.112549</ele>
        <time>2013-12-12T13:16:36Z</time>
      </trkpt>
      <trkpt lat="42.90962" lon="-0.67416">
        <ele>1032.593262</ele>
        <time>2013-12-12T13:16:39Z</time>
      </trkpt>
      <trkpt lat="42.90966" lon="-0.6741">
        <ele>1031.631836</ele>
        <time>2013-12-12T13:16:43Z</time>
      </trkpt>
      <trkpt lat="42.90974" lon="-0.67389">
        <ele>1028.267334</ele>
        <time>2013-12-12T13:16:57Z</time>
      </trkpt>
      <trkpt lat="42.90974" lon="-0.67388">
        <ele>1028.267334</ele>
        <time>2013-12-12T13:16:58Z</time>
      </trkpt>
      <trkpt lat="42.90984" lon="-0.67372">
        <ele>1026.344727</ele>
        <time>2013-12-12T13:17:10Z</time>
      </trkpt>
      <trkpt lat="42.90986" lon="-0.6737">
        <ele>1026.344727</ele>
        <time>2013-12-12T13:17:12Z</time>
      </trkpt>
      <trkpt lat="42.90988" lon="-0.67363">
        <ele>1024.902832</ele>
        <time>2013-12-12T13:17:16Z</time>
      </trkpt>
      <trkpt lat="42.90993" lon="-0.67352">
        <ele>1023.941406</ele>
        <time>2013-12-12T13:17:22Z</time>
      </trkpt>
      <trkpt lat="42.90995" lon="-0.67348">
        <ele>1023.941406</ele>
        <time>2013-12-12T13:17:25Z</time>
      </trkpt>
      <trkpt lat="42.91006" lon="-0.67341">
        <ele>1022.018799</ele>
        <time>2013-12-12T13:17:37Z</time>
      </trkpt>
      <trkpt lat="42.91011" lon="-0.67368">
        <ele>1021.538086</ele>
        <time>2013-12-12T13:17:55Z</time>
      </trkpt>
      <trkpt lat="42.91015" lon="-0.67382">
        <ele>1021.538086</ele>
        <time>2013-12-12T13:18:04Z</time>
      </trkpt>
      <trkpt lat="42.91027" lon="-0.67405">
        <ele>1019.615479</ele>
        <time>2013-12-12T13:18:20Z</time>
      </trkpt>
      <trkpt lat="42.91035" lon="-0.67428">
        <ele>1018.17334</ele>
        <time>2013-12-12T13:18:34Z</time>
      </trkpt>
      <trkpt lat="42.91055" lon="-0.67442">
        <ele>1015.770264</ele>
        <time>2013-12-12T13:18:54Z</time>
      </trkpt>
      <trkpt lat="42.91065" lon="-0.67441">
        <ele>1015.770264</ele>
        <time>2013-12-12T13:19:04Z</time>
      </trkpt>
      <trkpt lat="42.9108" lon="-0.67422">
        <ele>1012.88623</ele>
        <time>2013-12-12T13:19:20Z</time>
      </trkpt>
      <trkpt lat="42.91083" lon="-0.67399">
        <ele>1011.444336</ele>
        <time>2013-12-12T13:19:33Z</time>
      </trkpt>
      <trkpt lat="42.91084" lon="-0.67374">
        <ele>1008.079834</ele>
        <time>2013-12-12T13:19:47Z</time>
      </trkpt>
      <trkpt lat="42.91087" lon="-0.67362">
        <ele>1007.118408</ele>
        <time>2013-12-12T13:19:54Z</time>
      </trkpt>
      <trkpt lat="42.91089" lon="-0.67331">
        <ele>1004.715088</ele>
        <time>2013-12-12T13:20:12Z</time>
      </trkpt>
      <trkpt lat="42.91081" lon="-0.67314">
        <ele>1001.831055</ele>
        <time>2013-12-12T13:20:22Z</time>
      </trkpt>
      <trkpt lat="42.91081" lon="-0.67312">
        <ele>1001.831055</ele>
        <time>2013-12-12T13:20:23Z</time>
      </trkpt>
      <trkpt lat="42.91069" lon="-0.67292">
        <ele>999.427734</ele>
        <time>2013-12-12T13:20:40Z</time>
      </trkpt>
      <trkpt lat="42.91074" lon="-0.67289">
        <ele>998.466309</ele>
        <time>2013-12-12T13:21:29Z</time>
      </trkpt>
      <trkpt lat="42.91081" lon="-0.67285">
        <ele>998.466309</ele>
        <time>2013-12-12T13:21:54Z</time>
      </trkpt>
      <trkpt lat="42.91081" lon="-0.67261">
        <ele>996.063232</ele>
        <time>2013-12-12T13:22:11Z</time>
      </trkpt>
      <trkpt lat="42.91086" lon="-0.67246">
        <ele>993.179199</ele>
        <time>2013-12-12T13:22:27Z</time>
      </trkpt>
      <trkpt lat="42.91098" lon="-0.67221">
        <ele>991.256592</ele>
        <time>2013-12-12T13:22:47Z</time>
      </trkpt>
      <trkpt lat="42.91108" lon="-0.67204">
        <ele>987.891846</ele>
        <time>2013-12-12T13:23:01Z</time>
      </trkpt>
      <trkpt lat="42.91111" lon="-0.67201">
        <ele>986.449951</ele>
        <time>2013-12-12T13:23:04Z</time>
      </trkpt>
      <trkpt lat="42.91125" lon="-0.67182">
        <ele>983.085205</ele>
        <time>2013-12-12T13:23:22Z</time>
      </trkpt>
      <trkpt lat="42.91145" lon="-0.67175">
        <ele>982.124023</ele>
        <time>2013-12-12T13:23:40Z</time>
      </trkpt>
      <trkpt lat="42.9117" lon="-0.67163">
        <ele>979.720703</ele>
        <time>2013-12-12T13:24:00Z</time>
      </trkpt>
      <trkpt lat="42.91188" lon="-0.67146">
        <ele>976.836914</ele>
        <time>2013-12-12T13:24:18Z</time>
      </trkpt>
      <trkpt lat="42.91198" lon="-0.67137">
        <ele>974.914307</ele>
        <time>2013-12-12T13:24:28Z</time>
      </trkpt>
      <trkpt lat="42.91205" lon="-0.67158">
        <ele>973.472412</ele>
        <time>2013-12-12T13:24:43Z</time>
      </trkpt>
      <trkpt lat="42.91203" lon="-0.67194">
        <ele>970.588135</ele>
        <time>2013-12-12T13:25:04Z</time>
      </trkpt>
      <trkpt lat="42.91222" lon="-0.6719">
        <ele>969.626953</ele>
        <time>2013-12-12T13:25:22Z</time>
      </trkpt>
      <trkpt lat="42.91221" lon="-0.67186">
        <ele>970.107422</ele>
        <time>2013-12-12T13:25:25Z</time>
      </trkpt>
      <trkpt lat="42.91221" lon="-0.67182">
        <ele>969.14624</ele>
        <time>2013-12-12T13:25:38Z</time>
      </trkpt>
      <trkpt lat="42.9122" lon="-0.67187">
        <ele>967.223633</ele>
        <time>2013-12-12T13:26:30Z</time>
      </trkpt>
      <trkpt lat="42.91219" lon="-0.67187">
        <ele>967.704102</ele>
        <time>2013-12-12T13:27:07Z</time>
      </trkpt>
      <trkpt lat="42.91219" lon="-0.6719">
        <ele>967.223633</ele>
        <time>2013-12-12T13:27:23Z</time>
      </trkpt>
    </trkseg>
  </trk>
</gpx>